<?xml version="1.0" encoding="UTF-8" standalone="no" ?>
<gpx xmlns="http://www.topografix.com/GPX/1/1" xmlns:xsi="http://www.w3.org/2001/XMLSchema-instance" xsi:schemaLocation="http://www.topografix.com/GPX/1/1 http://www.topografix.com/GPX/1/1/gpx.xsd" version="1.1" creator="VisuGPX - https://www.visugpx.com">
  <metadata>
    <name>La pierre du sacrifice</name>
    <desc><![CDATA[Belle ballade sur les Gras de Saint André de cruzières, de beaux rochers sentier accidenté mais reste très praticable.]]></desc>
  </metadata>
  <trk>
    <name><![CDATA[2017-06-30 09:36:37]]></name>
    <desc><![CDATA[Total: 5.1km]]></desc>
    <trkseg>
      <trkpt lat="44.30047" lon="4.20648">
        <ele>214.51</ele>
        <time>2017-06-30T07:17:12Z</time>
      </trkpt>
      <trkpt lat="44.30047" lon="4.20646">
        <ele>214.99</ele>
        <time>2017-06-30T07:17:36Z</time>
      </trkpt>
      <trkpt lat="44.30048" lon="4.20646">
        <ele>215.47</ele>
        <time>2017-06-30T07:18:02Z</time>
      </trkpt>
      <trkpt lat="44.30047" lon="4.20648">
        <ele>215.47</ele>
        <time>2017-06-30T07:18:15Z</time>
      </trkpt>
      <trkpt lat="44.30046" lon="4.20649">
        <ele>215.95</ele>
        <time>2017-06-30T07:18:27Z</time>
      </trkpt>
      <trkpt lat="44.30036" lon="4.20655">
        <ele>216.91</ele>
        <time>2017-06-30T07:18:39Z</time>
      </trkpt>
      <trkpt lat="44.30035" lon="4.20654">
        <ele>217.4</ele>
        <time>2017-06-30T07:18:45Z</time>
      </trkpt>
      <trkpt lat="44.30026" lon="4.20654">
        <ele>218.84</ele>
        <time>2017-06-30T07:18:58Z</time>
      </trkpt>
      <trkpt lat="44.30022" lon="4.20651">
        <ele>219.8</ele>
        <time>2017-06-30T07:19:11Z</time>
      </trkpt>
      <trkpt lat="44.30021" lon="4.20651">
        <ele>219.8</ele>
        <time>2017-06-30T07:19:12Z</time>
      </trkpt>
      <trkpt lat="44.30011" lon="4.20643">
        <ele>222.2</ele>
        <time>2017-06-30T07:19:25Z</time>
      </trkpt>
      <trkpt lat="44.30003" lon="4.20638">
        <ele>224.61</ele>
        <time>2017-06-30T07:19:38Z</time>
      </trkpt>
      <trkpt lat="44.30002" lon="4.20638">
        <ele>225.09</ele>
        <time>2017-06-30T07:19:39Z</time>
      </trkpt>
      <trkpt lat="44.3" lon="4.20637">
        <ele>225.09</ele>
        <time>2017-06-30T07:19:41Z</time>
      </trkpt>
      <trkpt lat="44.29997" lon="4.20634">
        <ele>226.05</ele>
        <time>2017-06-30T07:19:47Z</time>
      </trkpt>
      <trkpt lat="44.29993" lon="4.20635">
        <ele>226.53</ele>
        <time>2017-06-30T07:19:52Z</time>
      </trkpt>
      <trkpt lat="44.29984" lon="4.20632">
        <ele>227.49</ele>
        <time>2017-06-30T07:20:06Z</time>
      </trkpt>
      <trkpt lat="44.2998" lon="4.2063">
        <ele>230.37</ele>
        <time>2017-06-30T07:20:12Z</time>
      </trkpt>
      <trkpt lat="44.29974" lon="4.20628">
        <ele>232.3</ele>
        <time>2017-06-30T07:20:24Z</time>
      </trkpt>
      <trkpt lat="44.29971" lon="4.20625">
        <ele>233.26</ele>
        <time>2017-06-30T07:20:30Z</time>
      </trkpt>
      <trkpt lat="44.29966" lon="4.20623">
        <ele>236.62</ele>
        <time>2017-06-30T07:20:38Z</time>
      </trkpt>
      <trkpt lat="44.29964" lon="4.20621">
        <ele>233.26</ele>
        <time>2017-06-30T07:20:42Z</time>
      </trkpt>
      <trkpt lat="44.29963" lon="4.20621">
        <ele>237.1</ele>
        <time>2017-06-30T07:20:43Z</time>
      </trkpt>
      <trkpt lat="44.29963" lon="4.2062">
        <ele>233.74</ele>
        <time>2017-06-30T07:20:44Z</time>
      </trkpt>
      <trkpt lat="44.29957" lon="4.20619">
        <ele>237.58</ele>
        <time>2017-06-30T07:20:52Z</time>
      </trkpt>
      <trkpt lat="44.29954" lon="4.20617">
        <ele>238.06</ele>
        <time>2017-06-30T07:21:08Z</time>
      </trkpt>
      <trkpt lat="44.29949" lon="4.20612">
        <ele>239.99</ele>
        <time>2017-06-30T07:21:23Z</time>
      </trkpt>
      <trkpt lat="44.29942" lon="4.20609">
        <ele>241.91</ele>
        <time>2017-06-30T07:21:34Z</time>
      </trkpt>
      <trkpt lat="44.29932" lon="4.20604">
        <ele>244.79</ele>
        <time>2017-06-30T07:21:50Z</time>
      </trkpt>
      <trkpt lat="44.29923" lon="4.20599">
        <ele>246.72</ele>
        <time>2017-06-30T07:22:04Z</time>
      </trkpt>
      <trkpt lat="44.29919" lon="4.20597">
        <ele>246.72</ele>
        <time>2017-06-30T07:22:18Z</time>
      </trkpt>
      <trkpt lat="44.29917" lon="4.20596">
        <ele>248.16</ele>
        <time>2017-06-30T07:22:21Z</time>
      </trkpt>
      <trkpt lat="44.29909" lon="4.20592">
        <ele>249.6</ele>
        <time>2017-06-30T07:22:36Z</time>
      </trkpt>
      <trkpt lat="44.29908" lon="4.20591">
        <ele>249.12</ele>
        <time>2017-06-30T07:22:37Z</time>
      </trkpt>
      <trkpt lat="44.29905" lon="4.2059">
        <ele>252.96</ele>
        <time>2017-06-30T07:22:43Z</time>
      </trkpt>
      <trkpt lat="44.29898" lon="4.20589">
        <ele>253.93</ele>
        <time>2017-06-30T07:22:54Z</time>
      </trkpt>
      <trkpt lat="44.29896" lon="4.20586">
        <ele>253.44</ele>
        <time>2017-06-30T07:22:58Z</time>
      </trkpt>
      <trkpt lat="44.29894" lon="4.20583">
        <ele>249.12</ele>
        <time>2017-06-30T07:23:03Z</time>
      </trkpt>
      <trkpt lat="44.29894" lon="4.20583">
        <ele>254.41</ele>
        <time>2017-06-30T07:23:04Z</time>
      </trkpt>
      <trkpt lat="44.29895" lon="4.20582">
        <ele>257.77</ele>
        <time>2017-06-30T07:23:06Z</time>
      </trkpt>
      <trkpt lat="44.29895" lon="4.20581">
        <ele>254.41</ele>
        <time>2017-06-30T07:23:07Z</time>
      </trkpt>
      <trkpt lat="44.29894" lon="4.20579">
        <ele>252.48</ele>
        <time>2017-06-30T07:23:13Z</time>
      </trkpt>
      <trkpt lat="44.29894" lon="4.20578">
        <ele>253.93</ele>
        <time>2017-06-30T07:23:15Z</time>
      </trkpt>
      <trkpt lat="44.29893" lon="4.20582">
        <ele>254.89</ele>
        <time>2017-06-30T07:23:38Z</time>
      </trkpt>
      <trkpt lat="44.29891" lon="4.20582">
        <ele>251.04</ele>
        <time>2017-06-30T07:23:43Z</time>
      </trkpt>
      <trkpt lat="44.29891" lon="4.20582">
        <ele>256.81</ele>
        <time>2017-06-30T07:23:44Z</time>
      </trkpt>
      <trkpt lat="44.29891" lon="4.20582">
        <ele>256.81</ele>
        <time>2017-06-30T07:23:45Z</time>
      </trkpt>
      <trkpt lat="44.2989" lon="4.20583">
        <ele>254.89</ele>
        <time>2017-06-30T07:23:47Z</time>
      </trkpt>
      <trkpt lat="44.29891" lon="4.20584">
        <ele>255.37</ele>
        <time>2017-06-30T07:23:59Z</time>
      </trkpt>
      <trkpt lat="44.29891" lon="4.20583">
        <ele>253.93</ele>
        <time>2017-06-30T07:24:03Z</time>
      </trkpt>
      <trkpt lat="44.29891" lon="4.20584">
        <ele>257.77</ele>
        <time>2017-06-30T07:24:06Z</time>
      </trkpt>
      <trkpt lat="44.29891" lon="4.20583">
        <ele>252.48</ele>
        <time>2017-06-30T07:24:20Z</time>
      </trkpt>
      <trkpt lat="44.29892" lon="4.20583">
        <ele>256.81</ele>
        <time>2017-06-30T07:24:27Z</time>
      </trkpt>
      <trkpt lat="44.29892" lon="4.20583">
        <ele>257.29</ele>
        <time>2017-06-30T07:24:28Z</time>
      </trkpt>
      <trkpt lat="44.29893" lon="4.20584">
        <ele>254.89</ele>
        <time>2017-06-30T07:24:30Z</time>
      </trkpt>
      <trkpt lat="44.29892" lon="4.20582">
        <ele>256.33</ele>
        <time>2017-06-30T07:24:39Z</time>
      </trkpt>
      <trkpt lat="44.29887" lon="4.20581">
        <ele>257.77</ele>
        <time>2017-06-30T07:24:49Z</time>
      </trkpt>
      <trkpt lat="44.2988" lon="4.20578">
        <ele>259.69</ele>
        <time>2017-06-30T07:25:01Z</time>
      </trkpt>
      <trkpt lat="44.29874" lon="4.20573">
        <ele>261.14</ele>
        <time>2017-06-30T07:25:17Z</time>
      </trkpt>
      <trkpt lat="44.29868" lon="4.20571">
        <ele>264.5</ele>
        <time>2017-06-30T07:25:26Z</time>
      </trkpt>
      <trkpt lat="44.29865" lon="4.20571">
        <ele>264.5</ele>
        <time>2017-06-30T07:25:30Z</time>
      </trkpt>
      <trkpt lat="44.2986" lon="4.20569">
        <ele>265.46</ele>
        <time>2017-06-30T07:25:36Z</time>
      </trkpt>
      <trkpt lat="44.29854" lon="4.20565">
        <ele>266.42</ele>
        <time>2017-06-30T07:25:45Z</time>
      </trkpt>
      <trkpt lat="44.29852" lon="4.20563">
        <ele>266.9</ele>
        <time>2017-06-30T07:25:48Z</time>
      </trkpt>
      <trkpt lat="44.29849" lon="4.20563">
        <ele>267.86</ele>
        <time>2017-06-30T07:25:52Z</time>
      </trkpt>
      <trkpt lat="44.29846" lon="4.20568">
        <ele>268.83</ele>
        <time>2017-06-30T07:26:05Z</time>
      </trkpt>
      <trkpt lat="44.29849" lon="4.20569">
        <ele>265.94</ele>
        <time>2017-06-30T07:26:27Z</time>
      </trkpt>
      <trkpt lat="44.29849" lon="4.20568">
        <ele>269.79</ele>
        <time>2017-06-30T07:26:28Z</time>
      </trkpt>
      <trkpt lat="44.29846" lon="4.20563">
        <ele>268.83</ele>
        <time>2017-06-30T07:26:48Z</time>
      </trkpt>
      <trkpt lat="44.29845" lon="4.20566">
        <ele>269.31</ele>
        <time>2017-06-30T07:27:12Z</time>
      </trkpt>
      <trkpt lat="44.29844" lon="4.20566">
        <ele>269.31</ele>
        <time>2017-06-30T07:27:39Z</time>
      </trkpt>
      <trkpt lat="44.29846" lon="4.20564">
        <ele>269.79</ele>
        <time>2017-06-30T07:28:07Z</time>
      </trkpt>
      <trkpt lat="44.29847" lon="4.20565">
        <ele>270.27</ele>
        <time>2017-06-30T07:28:34Z</time>
      </trkpt>
      <trkpt lat="44.29849" lon="4.20562">
        <ele>270.27</ele>
        <time>2017-06-30T07:29:01Z</time>
      </trkpt>
      <trkpt lat="44.29849" lon="4.2056">
        <ele>270.75</ele>
        <time>2017-06-30T07:29:15Z</time>
      </trkpt>
      <trkpt lat="44.2984" lon="4.20554">
        <ele>271.71</ele>
        <time>2017-06-30T07:29:31Z</time>
      </trkpt>
      <trkpt lat="44.29837" lon="4.20553">
        <ele>273.15</ele>
        <time>2017-06-30T07:29:34Z</time>
      </trkpt>
      <trkpt lat="44.29825" lon="4.20549">
        <ele>275.07</ele>
        <time>2017-06-30T07:29:47Z</time>
      </trkpt>
      <trkpt lat="44.2982" lon="4.20547">
        <ele>276.52</ele>
        <time>2017-06-30T07:29:53Z</time>
      </trkpt>
      <trkpt lat="44.29806" lon="4.20538">
        <ele>276.52</ele>
        <time>2017-06-30T07:30:07Z</time>
      </trkpt>
      <trkpt lat="44.29792" lon="4.20532">
        <ele>278.44</ele>
        <time>2017-06-30T07:30:22Z</time>
      </trkpt>
      <trkpt lat="44.29782" lon="4.20527">
        <ele>278.44</ele>
        <time>2017-06-30T07:30:33Z</time>
      </trkpt>
      <trkpt lat="44.29773" lon="4.20524">
        <ele>279.4</ele>
        <time>2017-06-30T07:30:44Z</time>
      </trkpt>
      <trkpt lat="44.29767" lon="4.2052">
        <ele>279.88</ele>
        <time>2017-06-30T07:30:59Z</time>
      </trkpt>
      <trkpt lat="44.29753" lon="4.20513">
        <ele>279.88</ele>
        <time>2017-06-30T07:31:13Z</time>
      </trkpt>
      <trkpt lat="44.29738" lon="4.20506">
        <ele>280.36</ele>
        <time>2017-06-30T07:31:28Z</time>
      </trkpt>
      <trkpt lat="44.29734" lon="4.20503">
        <ele>280.36</ele>
        <time>2017-06-30T07:31:33Z</time>
      </trkpt>
      <trkpt lat="44.29729" lon="4.20501">
        <ele>280.36</ele>
        <time>2017-06-30T07:31:38Z</time>
      </trkpt>
      <trkpt lat="44.29717" lon="4.20495">
        <ele>279.4</ele>
        <time>2017-06-30T07:31:52Z</time>
      </trkpt>
      <trkpt lat="44.29702" lon="4.20486">
        <ele>280.36</ele>
        <time>2017-06-30T07:32:07Z</time>
      </trkpt>
      <trkpt lat="44.29692" lon="4.20478">
        <ele>279.4</ele>
        <time>2017-06-30T07:32:17Z</time>
      </trkpt>
      <trkpt lat="44.29679" lon="4.20466">
        <ele>278.44</ele>
        <time>2017-06-30T07:32:33Z</time>
      </trkpt>
      <trkpt lat="44.29673" lon="4.2046">
        <ele>280.36</ele>
        <time>2017-06-30T07:32:41Z</time>
      </trkpt>
      <trkpt lat="44.29671" lon="4.2046">
        <ele>278.92</ele>
        <time>2017-06-30T07:32:43Z</time>
      </trkpt>
      <trkpt lat="44.29658" lon="4.2045">
        <ele>278.44</ele>
        <time>2017-06-30T07:32:57Z</time>
      </trkpt>
      <trkpt lat="44.29645" lon="4.20436">
        <ele>277.48</ele>
        <time>2017-06-30T07:33:12Z</time>
      </trkpt>
      <trkpt lat="44.29639" lon="4.20431">
        <ele>278.44</ele>
        <time>2017-06-30T07:33:18Z</time>
      </trkpt>
      <trkpt lat="44.29634" lon="4.20429">
        <ele>278.44</ele>
        <time>2017-06-30T07:33:22Z</time>
      </trkpt>
      <trkpt lat="44.2963" lon="4.20427">
        <ele>278.44</ele>
        <time>2017-06-30T07:33:26Z</time>
      </trkpt>
      <trkpt lat="44.29627" lon="4.20425">
        <ele>278.44</ele>
        <time>2017-06-30T07:33:29Z</time>
      </trkpt>
      <trkpt lat="44.29612" lon="4.20419">
        <ele>278.44</ele>
        <time>2017-06-30T07:33:44Z</time>
      </trkpt>
      <trkpt lat="44.29597" lon="4.20413">
        <ele>278.92</ele>
        <time>2017-06-30T07:33:59Z</time>
      </trkpt>
      <trkpt lat="44.29586" lon="4.2041">
        <ele>279.88</ele>
        <time>2017-06-30T07:34:11Z</time>
      </trkpt>
      <trkpt lat="44.29571" lon="4.20406">
        <ele>279.88</ele>
        <time>2017-06-30T07:34:25Z</time>
      </trkpt>
      <trkpt lat="44.29557" lon="4.20401">
        <ele>280.36</ele>
        <time>2017-06-30T07:34:38Z</time>
      </trkpt>
      <trkpt lat="44.29556" lon="4.204">
        <ele>280.36</ele>
        <time>2017-06-30T07:34:42Z</time>
      </trkpt>
      <trkpt lat="44.29547" lon="4.20396">
        <ele>280.36</ele>
        <time>2017-06-30T07:34:52Z</time>
      </trkpt>
      <trkpt lat="44.29537" lon="4.20393">
        <ele>280.36</ele>
        <time>2017-06-30T07:35:03Z</time>
      </trkpt>
      <trkpt lat="44.29526" lon="4.20389">
        <ele>280.36</ele>
        <time>2017-06-30T07:35:16Z</time>
      </trkpt>
      <trkpt lat="44.29525" lon="4.2039">
        <ele>280.84</ele>
        <time>2017-06-30T07:35:26Z</time>
      </trkpt>
      <trkpt lat="44.29525" lon="4.20386">
        <ele>279.88</ele>
        <time>2017-06-30T07:35:53Z</time>
      </trkpt>
      <trkpt lat="44.29525" lon="4.20386">
        <ele>279.88</ele>
        <time>2017-06-30T07:35:54Z</time>
      </trkpt>
      <trkpt lat="44.29518" lon="4.2039">
        <ele>280.84</ele>
        <time>2017-06-30T07:36:16Z</time>
      </trkpt>
      <trkpt lat="44.29515" lon="4.20402">
        <ele>282.77</ele>
        <time>2017-06-30T07:36:32Z</time>
      </trkpt>
      <trkpt lat="44.29506" lon="4.20404">
        <ele>282.77</ele>
        <time>2017-06-30T07:36:44Z</time>
      </trkpt>
      <trkpt lat="44.29499" lon="4.20407">
        <ele>283.25</ele>
        <time>2017-06-30T07:36:53Z</time>
      </trkpt>
      <trkpt lat="44.29488" lon="4.20412">
        <ele>284.21</ele>
        <time>2017-06-30T07:37:05Z</time>
      </trkpt>
      <trkpt lat="44.29477" lon="4.20418">
        <ele>284.21</ele>
        <time>2017-06-30T07:37:17Z</time>
      </trkpt>
      <trkpt lat="44.2947" lon="4.2042">
        <ele>284.69</ele>
        <time>2017-06-30T07:37:24Z</time>
      </trkpt>
      <trkpt lat="44.29461" lon="4.20431">
        <ele>285.65</ele>
        <time>2017-06-30T07:37:36Z</time>
      </trkpt>
      <trkpt lat="44.29454" lon="4.20441">
        <ele>286.61</ele>
        <time>2017-06-30T07:37:47Z</time>
      </trkpt>
      <trkpt lat="44.29448" lon="4.20452">
        <ele>287.09</ele>
        <time>2017-06-30T07:37:58Z</time>
      </trkpt>
      <trkpt lat="44.29444" lon="4.20467">
        <ele>288.53</ele>
        <time>2017-06-30T07:38:09Z</time>
      </trkpt>
      <trkpt lat="44.29444" lon="4.20473">
        <ele>288.53</ele>
        <time>2017-06-30T07:38:14Z</time>
      </trkpt>
      <trkpt lat="44.29447" lon="4.20488">
        <ele>289.01</ele>
        <time>2017-06-30T07:38:26Z</time>
      </trkpt>
      <trkpt lat="44.29449" lon="4.20504">
        <ele>289.01</ele>
        <time>2017-06-30T07:38:39Z</time>
      </trkpt>
      <trkpt lat="44.29451" lon="4.20516">
        <ele>288.05</ele>
        <time>2017-06-30T07:38:49Z</time>
      </trkpt>
      <trkpt lat="44.29455" lon="4.20529">
        <ele>288.05</ele>
        <time>2017-06-30T07:39:01Z</time>
      </trkpt>
      <trkpt lat="44.29459" lon="4.20542">
        <ele>288.05</ele>
        <time>2017-06-30T07:39:13Z</time>
      </trkpt>
      <trkpt lat="44.29458" lon="4.20549">
        <ele>287.57</ele>
        <time>2017-06-30T07:39:25Z</time>
      </trkpt>
      <trkpt lat="44.29461" lon="4.20548">
        <ele>288.05</ele>
        <time>2017-06-30T07:39:30Z</time>
      </trkpt>
      <trkpt lat="44.29467" lon="4.20547">
        <ele>288.05</ele>
        <time>2017-06-30T07:39:36Z</time>
      </trkpt>
      <trkpt lat="44.29475" lon="4.2054">
        <ele>288.05</ele>
        <time>2017-06-30T07:39:46Z</time>
      </trkpt>
      <trkpt lat="44.29477" lon="4.2054">
        <ele>288.05</ele>
        <time>2017-06-30T07:39:55Z</time>
      </trkpt>
      <trkpt lat="44.29482" lon="4.20538">
        <ele>288.05</ele>
        <time>2017-06-30T07:40:06Z</time>
      </trkpt>
      <trkpt lat="44.29482" lon="4.20537">
        <ele>288.05</ele>
        <time>2017-06-30T07:40:07Z</time>
      </trkpt>
      <trkpt lat="44.29485" lon="4.20533">
        <ele>288.05</ele>
        <time>2017-06-30T07:40:18Z</time>
      </trkpt>
      <trkpt lat="44.29484" lon="4.20532">
        <ele>288.53</ele>
        <time>2017-06-30T07:40:31Z</time>
      </trkpt>
      <trkpt lat="44.29482" lon="4.20535">
        <ele>288.53</ele>
        <time>2017-06-30T07:40:45Z</time>
      </trkpt>
      <trkpt lat="44.29478" lon="4.20541">
        <ele>288.53</ele>
        <time>2017-06-30T07:40:54Z</time>
      </trkpt>
      <trkpt lat="44.29474" lon="4.20541">
        <ele>288.53</ele>
        <time>2017-06-30T07:40:59Z</time>
      </trkpt>
      <trkpt lat="44.29471" lon="4.20545">
        <ele>288.53</ele>
        <time>2017-06-30T07:41:04Z</time>
      </trkpt>
      <trkpt lat="44.29464" lon="4.20547">
        <ele>289.01</ele>
        <time>2017-06-30T07:41:10Z</time>
      </trkpt>
      <trkpt lat="44.29462" lon="4.20547">
        <ele>289.01</ele>
        <time>2017-06-30T07:41:12Z</time>
      </trkpt>
      <trkpt lat="44.29458" lon="4.20556">
        <ele>289.01</ele>
        <time>2017-06-30T07:41:24Z</time>
      </trkpt>
      <trkpt lat="44.29458" lon="4.20558">
        <ele>289.01</ele>
        <time>2017-06-30T07:41:26Z</time>
      </trkpt>
      <trkpt lat="44.29455" lon="4.20578">
        <ele>289.01</ele>
        <time>2017-06-30T07:41:40Z</time>
      </trkpt>
      <trkpt lat="44.29453" lon="4.20599">
        <ele>288.53</ele>
        <time>2017-06-30T07:41:54Z</time>
      </trkpt>
      <trkpt lat="44.29454" lon="4.20614">
        <ele>288.53</ele>
        <time>2017-06-30T07:42:06Z</time>
      </trkpt>
      <trkpt lat="44.29449" lon="4.20634">
        <ele>288.53</ele>
        <time>2017-06-30T07:42:21Z</time>
      </trkpt>
      <trkpt lat="44.29445" lon="4.20649">
        <ele>288.53</ele>
        <time>2017-06-30T07:42:33Z</time>
      </trkpt>
      <trkpt lat="44.29443" lon="4.20666">
        <ele>288.53</ele>
        <time>2017-06-30T07:42:46Z</time>
      </trkpt>
      <trkpt lat="44.29437" lon="4.2068">
        <ele>289.97</ele>
        <time>2017-06-30T07:42:58Z</time>
      </trkpt>
      <trkpt lat="44.29437" lon="4.20681">
        <ele>289.97</ele>
        <time>2017-06-30T07:42:59Z</time>
      </trkpt>
      <trkpt lat="44.29436" lon="4.20686">
        <ele>289.97</ele>
        <time>2017-06-30T07:43:04Z</time>
      </trkpt>
      <trkpt lat="44.29435" lon="4.2069">
        <ele>289.97</ele>
        <time>2017-06-30T07:43:06Z</time>
      </trkpt>
      <trkpt lat="44.29427" lon="4.207">
        <ele>290.94</ele>
        <time>2017-06-30T07:43:18Z</time>
      </trkpt>
      <trkpt lat="44.29418" lon="4.20699">
        <ele>291.9</ele>
        <time>2017-06-30T07:43:27Z</time>
      </trkpt>
      <trkpt lat="44.29412" lon="4.20695">
        <ele>292.38</ele>
        <time>2017-06-30T07:43:34Z</time>
      </trkpt>
      <trkpt lat="44.294" lon="4.20695">
        <ele>293.82</ele>
        <time>2017-06-30T07:43:47Z</time>
      </trkpt>
      <trkpt lat="44.29396" lon="4.20695">
        <ele>294.3</ele>
        <time>2017-06-30T07:43:52Z</time>
      </trkpt>
      <trkpt lat="44.29392" lon="4.20694">
        <ele>294.3</ele>
        <time>2017-06-30T07:43:56Z</time>
      </trkpt>
      <trkpt lat="44.29382" lon="4.20695">
        <ele>295.26</ele>
        <time>2017-06-30T07:44:07Z</time>
      </trkpt>
      <trkpt lat="44.29379" lon="4.20695">
        <ele>295.74</ele>
        <time>2017-06-30T07:44:11Z</time>
      </trkpt>
      <trkpt lat="44.29375" lon="4.20696">
        <ele>295.74</ele>
        <time>2017-06-30T07:44:15Z</time>
      </trkpt>
      <trkpt lat="44.29371" lon="4.20696">
        <ele>297.18</ele>
        <time>2017-06-30T07:44:19Z</time>
      </trkpt>
      <trkpt lat="44.29361" lon="4.20704">
        <ele>297.18</ele>
        <time>2017-06-30T07:44:32Z</time>
      </trkpt>
      <trkpt lat="44.29354" lon="4.20716">
        <ele>298.15</ele>
        <time>2017-06-30T07:44:45Z</time>
      </trkpt>
      <trkpt lat="44.29341" lon="4.20725">
        <ele>299.11</ele>
        <time>2017-06-30T07:45:00Z</time>
      </trkpt>
      <trkpt lat="44.29332" lon="4.20728">
        <ele>299.59</ele>
        <time>2017-06-30T07:45:08Z</time>
      </trkpt>
      <trkpt lat="44.29321" lon="4.20737">
        <ele>300.55</ele>
        <time>2017-06-30T07:45:23Z</time>
      </trkpt>
      <trkpt lat="44.29316" lon="4.20747">
        <ele>301.51</ele>
        <time>2017-06-30T07:45:34Z</time>
      </trkpt>
      <trkpt lat="44.29313" lon="4.20755">
        <ele>301.99</ele>
        <time>2017-06-30T07:45:44Z</time>
      </trkpt>
      <trkpt lat="44.29309" lon="4.20764">
        <ele>301.99</ele>
        <time>2017-06-30T07:45:56Z</time>
      </trkpt>
      <trkpt lat="44.29308" lon="4.20767">
        <ele>302.95</ele>
        <time>2017-06-30T07:46:11Z</time>
      </trkpt>
      <trkpt lat="44.29306" lon="4.20772">
        <ele>303.43</ele>
        <time>2017-06-30T07:46:21Z</time>
      </trkpt>
      <trkpt lat="44.29306" lon="4.20773">
        <ele>303.43</ele>
        <time>2017-06-30T07:46:39Z</time>
      </trkpt>
      <trkpt lat="44.29301" lon="4.20786">
        <ele>303.43</ele>
        <time>2017-06-30T07:46:53Z</time>
      </trkpt>
      <trkpt lat="44.29299" lon="4.20797">
        <ele>303.43</ele>
        <time>2017-06-30T07:47:05Z</time>
      </trkpt>
      <trkpt lat="44.29294" lon="4.20812">
        <ele>303.43</ele>
        <time>2017-06-30T07:47:17Z</time>
      </trkpt>
      <trkpt lat="44.2929" lon="4.20821">
        <ele>303.43</ele>
        <time>2017-06-30T07:47:24Z</time>
      </trkpt>
      <trkpt lat="44.29289" lon="4.20827">
        <ele>303.43</ele>
        <time>2017-06-30T07:47:30Z</time>
      </trkpt>
      <trkpt lat="44.29285" lon="4.20842">
        <ele>302.95</ele>
        <time>2017-06-30T07:47:44Z</time>
      </trkpt>
      <trkpt lat="44.29284" lon="4.20847">
        <ele>302.95</ele>
        <time>2017-06-30T07:47:48Z</time>
      </trkpt>
      <trkpt lat="44.29281" lon="4.20861">
        <ele>301.99</ele>
        <time>2017-06-30T07:48:00Z</time>
      </trkpt>
      <trkpt lat="44.29277" lon="4.20873">
        <ele>301.51</ele>
        <time>2017-06-30T07:48:11Z</time>
      </trkpt>
      <trkpt lat="44.29276" lon="4.20876">
        <ele>301.03</ele>
        <time>2017-06-30T07:48:14Z</time>
      </trkpt>
      <trkpt lat="44.29273" lon="4.20881">
        <ele>300.07</ele>
        <time>2017-06-30T07:48:20Z</time>
      </trkpt>
      <trkpt lat="44.29268" lon="4.20897">
        <ele>300.07</ele>
        <time>2017-06-30T07:48:32Z</time>
      </trkpt>
      <trkpt lat="44.29268" lon="4.209">
        <ele>299.59</ele>
        <time>2017-06-30T07:48:35Z</time>
      </trkpt>
      <trkpt lat="44.29269" lon="4.20913">
        <ele>299.59</ele>
        <time>2017-06-30T07:48:44Z</time>
      </trkpt>
      <trkpt lat="44.2927" lon="4.20925">
        <ele>298.63</ele>
        <time>2017-06-30T07:48:55Z</time>
      </trkpt>
      <trkpt lat="44.29268" lon="4.20928">
        <ele>298.63</ele>
        <time>2017-06-30T07:49:03Z</time>
      </trkpt>
      <trkpt lat="44.2926" lon="4.20937">
        <ele>298.63</ele>
        <time>2017-06-30T07:49:14Z</time>
      </trkpt>
      <trkpt lat="44.29259" lon="4.2094">
        <ele>298.15</ele>
        <time>2017-06-30T07:49:19Z</time>
      </trkpt>
      <trkpt lat="44.29262" lon="4.20933">
        <ele>298.15</ele>
        <time>2017-06-30T07:49:25Z</time>
      </trkpt>
      <trkpt lat="44.29274" lon="4.2093">
        <ele>298.15</ele>
        <time>2017-06-30T07:49:39Z</time>
      </trkpt>
      <trkpt lat="44.29275" lon="4.20929">
        <ele>298.15</ele>
        <time>2017-06-30T07:49:42Z</time>
      </trkpt>
      <trkpt lat="44.29273" lon="4.20927">
        <ele>298.15</ele>
        <time>2017-06-30T07:49:55Z</time>
      </trkpt>
      <trkpt lat="44.29269" lon="4.2093">
        <ele>299.11</ele>
        <time>2017-06-30T07:50:08Z</time>
      </trkpt>
      <trkpt lat="44.29265" lon="4.20931">
        <ele>299.11</ele>
        <time>2017-06-30T07:50:20Z</time>
      </trkpt>
      <trkpt lat="44.29264" lon="4.2093">
        <ele>299.11</ele>
        <time>2017-06-30T07:50:41Z</time>
      </trkpt>
      <trkpt lat="44.29262" lon="4.20934">
        <ele>299.59</ele>
        <time>2017-06-30T07:51:06Z</time>
      </trkpt>
      <trkpt lat="44.29259" lon="4.20939">
        <ele>298.15</ele>
        <time>2017-06-30T07:51:19Z</time>
      </trkpt>
      <trkpt lat="44.29257" lon="4.20949">
        <ele>297.18</ele>
        <time>2017-06-30T07:51:34Z</time>
      </trkpt>
      <trkpt lat="44.29255" lon="4.20958">
        <ele>297.18</ele>
        <time>2017-06-30T07:51:48Z</time>
      </trkpt>
      <trkpt lat="44.29257" lon="4.20956">
        <ele>296.22</ele>
        <time>2017-06-30T07:52:04Z</time>
      </trkpt>
      <trkpt lat="44.29254" lon="4.2096">
        <ele>290.46</ele>
        <time>2017-06-30T07:52:32Z</time>
      </trkpt>
      <trkpt lat="44.29254" lon="4.2096">
        <ele>294.78</ele>
        <time>2017-06-30T07:52:33Z</time>
      </trkpt>
      <trkpt lat="44.29255" lon="4.2096">
        <ele>302.47</ele>
        <time>2017-06-30T07:52:35Z</time>
      </trkpt>
      <trkpt lat="44.29255" lon="4.2096">
        <ele>296.7</ele>
        <time>2017-06-30T07:52:36Z</time>
      </trkpt>
      <trkpt lat="44.29255" lon="4.20963">
        <ele>296.22</ele>
        <time>2017-06-30T07:52:44Z</time>
      </trkpt>
      <trkpt lat="44.29254" lon="4.20972">
        <ele>297.67</ele>
        <time>2017-06-30T07:52:50Z</time>
      </trkpt>
      <trkpt lat="44.29256" lon="4.20985">
        <ele>299.59</ele>
        <time>2017-06-30T07:53:03Z</time>
      </trkpt>
      <trkpt lat="44.29255" lon="4.20989">
        <ele>300.07</ele>
        <time>2017-06-30T07:53:08Z</time>
      </trkpt>
      <trkpt lat="44.29248" lon="4.20999">
        <ele>301.51</ele>
        <time>2017-06-30T07:53:22Z</time>
      </trkpt>
      <trkpt lat="44.29243" lon="4.2101">
        <ele>303.91</ele>
        <time>2017-06-30T07:53:34Z</time>
      </trkpt>
      <trkpt lat="44.2924" lon="4.21019">
        <ele>304.39</ele>
        <time>2017-06-30T07:53:44Z</time>
      </trkpt>
      <trkpt lat="44.29239" lon="4.21021">
        <ele>304.39</ele>
        <time>2017-06-30T07:53:47Z</time>
      </trkpt>
      <trkpt lat="44.29236" lon="4.21031">
        <ele>305.36</ele>
        <time>2017-06-30T07:53:59Z</time>
      </trkpt>
      <trkpt lat="44.29234" lon="4.21036">
        <ele>305.36</ele>
        <time>2017-06-30T07:54:09Z</time>
      </trkpt>
      <trkpt lat="44.29231" lon="4.21049">
        <ele>305.36</ele>
        <time>2017-06-30T07:54:21Z</time>
      </trkpt>
      <trkpt lat="44.29228" lon="4.21065">
        <ele>305.84</ele>
        <time>2017-06-30T07:54:35Z</time>
      </trkpt>
      <trkpt lat="44.29222" lon="4.21083">
        <ele>305.84</ele>
        <time>2017-06-30T07:54:51Z</time>
      </trkpt>
      <trkpt lat="44.29219" lon="4.21103">
        <ele>307.28</ele>
        <time>2017-06-30T07:55:07Z</time>
      </trkpt>
      <trkpt lat="44.2922" lon="4.21111">
        <ele>307.76</ele>
        <time>2017-06-30T07:55:23Z</time>
      </trkpt>
      <trkpt lat="44.29219" lon="4.21128">
        <ele>308.72</ele>
        <time>2017-06-30T07:55:40Z</time>
      </trkpt>
      <trkpt lat="44.29215" lon="4.2114">
        <ele>309.68</ele>
        <time>2017-06-30T07:55:52Z</time>
      </trkpt>
      <trkpt lat="44.29214" lon="4.21149">
        <ele>310.16</ele>
        <time>2017-06-30T07:56:00Z</time>
      </trkpt>
      <trkpt lat="44.29214" lon="4.21168">
        <ele>311.12</ele>
        <time>2017-06-30T07:56:17Z</time>
      </trkpt>
      <trkpt lat="44.29217" lon="4.21185">
        <ele>311.12</ele>
        <time>2017-06-30T07:56:33Z</time>
      </trkpt>
      <trkpt lat="44.29219" lon="4.21199">
        <ele>311.12</ele>
        <time>2017-06-30T07:56:50Z</time>
      </trkpt>
      <trkpt lat="44.29222" lon="4.21212">
        <ele>311.6</ele>
        <time>2017-06-30T07:57:04Z</time>
      </trkpt>
      <trkpt lat="44.29224" lon="4.21225">
        <ele>312.09</ele>
        <time>2017-06-30T07:57:16Z</time>
      </trkpt>
      <trkpt lat="44.29228" lon="4.21237">
        <ele>312.09</ele>
        <time>2017-06-30T07:57:30Z</time>
      </trkpt>
      <trkpt lat="44.29235" lon="4.21245">
        <ele>312.57</ele>
        <time>2017-06-30T07:57:42Z</time>
      </trkpt>
      <trkpt lat="44.29244" lon="4.21257">
        <ele>312.57</ele>
        <time>2017-06-30T07:57:56Z</time>
      </trkpt>
      <trkpt lat="44.29246" lon="4.2126">
        <ele>312.57</ele>
        <time>2017-06-30T07:58:11Z</time>
      </trkpt>
      <trkpt lat="44.29249" lon="4.21263">
        <ele>312.57</ele>
        <time>2017-06-30T07:58:25Z</time>
      </trkpt>
      <trkpt lat="44.29246" lon="4.21262">
        <ele>311.6</ele>
        <time>2017-06-30T07:58:45Z</time>
      </trkpt>
      <trkpt lat="44.29248" lon="4.21258">
        <ele>308.72</ele>
        <time>2017-06-30T07:58:57Z</time>
      </trkpt>
      <trkpt lat="44.29248" lon="4.21258">
        <ele>314.49</ele>
        <time>2017-06-30T07:58:58Z</time>
      </trkpt>
      <trkpt lat="44.2925" lon="4.21261">
        <ele>311.12</ele>
        <time>2017-06-30T07:59:12Z</time>
      </trkpt>
      <trkpt lat="44.29252" lon="4.2127">
        <ele>311.12</ele>
        <time>2017-06-30T07:59:36Z</time>
      </trkpt>
      <trkpt lat="44.29263" lon="4.21277">
        <ele>310.64</ele>
        <time>2017-06-30T08:00:01Z</time>
      </trkpt>
      <trkpt lat="44.29269" lon="4.21281">
        <ele>312.09</ele>
        <time>2017-06-30T08:00:23Z</time>
      </trkpt>
      <trkpt lat="44.29278" lon="4.21289">
        <ele>311.12</ele>
        <time>2017-06-30T08:00:49Z</time>
      </trkpt>
      <trkpt lat="44.29284" lon="4.21293">
        <ele>309.68</ele>
        <time>2017-06-30T08:01:08Z</time>
      </trkpt>
      <trkpt lat="44.29296" lon="4.21292">
        <ele>309.68</ele>
        <time>2017-06-30T08:01:24Z</time>
      </trkpt>
      <trkpt lat="44.29303" lon="4.21282">
        <ele>309.2</ele>
        <time>2017-06-30T08:01:39Z</time>
      </trkpt>
      <trkpt lat="44.29309" lon="4.21283">
        <ele>308.72</ele>
        <time>2017-06-30T08:01:52Z</time>
      </trkpt>
      <trkpt lat="44.29311" lon="4.21284">
        <ele>311.6</ele>
        <time>2017-06-30T08:01:55Z</time>
      </trkpt>
      <trkpt lat="44.29316" lon="4.21288">
        <ele>310.16</ele>
        <time>2017-06-30T08:02:02Z</time>
      </trkpt>
      <trkpt lat="44.29321" lon="4.21287">
        <ele>311.12</ele>
        <time>2017-06-30T08:02:06Z</time>
      </trkpt>
      <trkpt lat="44.29332" lon="4.21293">
        <ele>311.12</ele>
        <time>2017-06-30T08:02:21Z</time>
      </trkpt>
      <trkpt lat="44.29344" lon="4.21294">
        <ele>310.16</ele>
        <time>2017-06-30T08:02:36Z</time>
      </trkpt>
      <trkpt lat="44.29356" lon="4.21287">
        <ele>309.2</ele>
        <time>2017-06-30T08:02:53Z</time>
      </trkpt>
      <trkpt lat="44.29364" lon="4.21289">
        <ele>308.24</ele>
        <time>2017-06-30T08:03:13Z</time>
      </trkpt>
      <trkpt lat="44.29376" lon="4.21286">
        <ele>307.28</ele>
        <time>2017-06-30T08:03:31Z</time>
      </trkpt>
      <trkpt lat="44.2939" lon="4.21285">
        <ele>306.32</ele>
        <time>2017-06-30T08:03:48Z</time>
      </trkpt>
      <trkpt lat="44.29402" lon="4.21285">
        <ele>305.36</ele>
        <time>2017-06-30T08:04:03Z</time>
      </trkpt>
      <trkpt lat="44.29412" lon="4.2129">
        <ele>304.39</ele>
        <time>2017-06-30T08:04:19Z</time>
      </trkpt>
      <trkpt lat="44.29422" lon="4.21302">
        <ele>305.36</ele>
        <time>2017-06-30T08:04:32Z</time>
      </trkpt>
      <trkpt lat="44.29429" lon="4.21315">
        <ele>305.36</ele>
        <time>2017-06-30T08:04:46Z</time>
      </trkpt>
      <trkpt lat="44.29438" lon="4.21322">
        <ele>305.36</ele>
        <time>2017-06-30T08:05:01Z</time>
      </trkpt>
      <trkpt lat="44.29445" lon="4.21335">
        <ele>305.84</ele>
        <time>2017-06-30T08:05:15Z</time>
      </trkpt>
      <trkpt lat="44.29445" lon="4.21339">
        <ele>305.84</ele>
        <time>2017-06-30T08:05:19Z</time>
      </trkpt>
      <trkpt lat="44.29448" lon="4.21348">
        <ele>303.91</ele>
        <time>2017-06-30T08:05:28Z</time>
      </trkpt>
      <trkpt lat="44.2945" lon="4.21356">
        <ele>302.95</ele>
        <time>2017-06-30T08:05:39Z</time>
      </trkpt>
      <trkpt lat="44.29451" lon="4.21356">
        <ele>303.43</ele>
        <time>2017-06-30T08:05:47Z</time>
      </trkpt>
      <trkpt lat="44.29455" lon="4.21368">
        <ele>302.95</ele>
        <time>2017-06-30T08:05:59Z</time>
      </trkpt>
      <trkpt lat="44.29461" lon="4.21378">
        <ele>302.95</ele>
        <time>2017-06-30T08:06:11Z</time>
      </trkpt>
      <trkpt lat="44.29466" lon="4.21388">
        <ele>302.95</ele>
        <time>2017-06-30T08:06:22Z</time>
      </trkpt>
      <trkpt lat="44.29473" lon="4.21396">
        <ele>302.95</ele>
        <time>2017-06-30T08:06:33Z</time>
      </trkpt>
      <trkpt lat="44.29477" lon="4.21402">
        <ele>302.47</ele>
        <time>2017-06-30T08:06:42Z</time>
      </trkpt>
      <trkpt lat="44.29484" lon="4.21411">
        <ele>301.51</ele>
        <time>2017-06-30T08:06:54Z</time>
      </trkpt>
      <trkpt lat="44.29485" lon="4.21411">
        <ele>301.51</ele>
        <time>2017-06-30T08:06:55Z</time>
      </trkpt>
      <trkpt lat="44.2949" lon="4.21415">
        <ele>301.03</ele>
        <time>2017-06-30T08:07:06Z</time>
      </trkpt>
      <trkpt lat="44.29491" lon="4.21416">
        <ele>301.03</ele>
        <time>2017-06-30T08:07:08Z</time>
      </trkpt>
      <trkpt lat="44.29497" lon="4.21425">
        <ele>300.07</ele>
        <time>2017-06-30T08:07:19Z</time>
      </trkpt>
      <trkpt lat="44.29503" lon="4.21432">
        <ele>299.59</ele>
        <time>2017-06-30T08:07:29Z</time>
      </trkpt>
      <trkpt lat="44.29511" lon="4.21438">
        <ele>299.11</ele>
        <time>2017-06-30T08:07:39Z</time>
      </trkpt>
      <trkpt lat="44.29513" lon="4.2144">
        <ele>299.11</ele>
        <time>2017-06-30T08:07:51Z</time>
      </trkpt>
      <trkpt lat="44.29515" lon="4.2144">
        <ele>298.63</ele>
        <time>2017-06-30T08:08:29Z</time>
      </trkpt>
      <trkpt lat="44.29515" lon="4.21437">
        <ele>299.59</ele>
        <time>2017-06-30T08:08:55Z</time>
      </trkpt>
      <trkpt lat="44.29516" lon="4.21441">
        <ele>299.59</ele>
        <time>2017-06-30T08:09:09Z</time>
      </trkpt>
      <trkpt lat="44.29518" lon="4.21441">
        <ele>299.59</ele>
        <time>2017-06-30T08:09:22Z</time>
      </trkpt>
      <trkpt lat="44.29518" lon="4.21442">
        <ele>298.63</ele>
        <time>2017-06-30T08:09:46Z</time>
      </trkpt>
      <trkpt lat="44.29517" lon="4.21439">
        <ele>296.7</ele>
        <time>2017-06-30T08:10:14Z</time>
      </trkpt>
      <trkpt lat="44.29517" lon="4.21439">
        <ele>301.03</ele>
        <time>2017-06-30T08:10:15Z</time>
      </trkpt>
      <trkpt lat="44.29517" lon="4.21439">
        <ele>299.11</ele>
        <time>2017-06-30T08:10:16Z</time>
      </trkpt>
      <trkpt lat="44.29517" lon="4.21438">
        <ele>299.11</ele>
        <time>2017-06-30T08:10:39Z</time>
      </trkpt>
      <trkpt lat="44.29518" lon="4.21441">
        <ele>299.11</ele>
        <time>2017-06-30T08:11:01Z</time>
      </trkpt>
      <trkpt lat="44.2952" lon="4.2144">
        <ele>299.11</ele>
        <time>2017-06-30T08:11:16Z</time>
      </trkpt>
      <trkpt lat="44.29519" lon="4.21443">
        <ele>299.11</ele>
        <time>2017-06-30T08:11:37Z</time>
      </trkpt>
      <trkpt lat="44.29521" lon="4.21442">
        <ele>299.11</ele>
        <time>2017-06-30T08:11:55Z</time>
      </trkpt>
      <trkpt lat="44.2952" lon="4.2144">
        <ele>299.11</ele>
        <time>2017-06-30T08:12:18Z</time>
      </trkpt>
      <trkpt lat="44.2952" lon="4.21439">
        <ele>299.59</ele>
        <time>2017-06-30T08:12:39Z</time>
      </trkpt>
      <trkpt lat="44.29516" lon="4.21439">
        <ele>299.59</ele>
        <time>2017-06-30T08:13:11Z</time>
      </trkpt>
      <trkpt lat="44.29524" lon="4.21444">
        <ele>299.11</ele>
        <time>2017-06-30T08:13:39Z</time>
      </trkpt>
      <trkpt lat="44.29532" lon="4.21445">
        <ele>298.63</ele>
        <time>2017-06-30T08:13:49Z</time>
      </trkpt>
      <trkpt lat="44.2954" lon="4.21447">
        <ele>298.15</ele>
        <time>2017-06-30T08:13:58Z</time>
      </trkpt>
      <trkpt lat="44.29546" lon="4.21452">
        <ele>297.67</ele>
        <time>2017-06-30T08:14:07Z</time>
      </trkpt>
      <trkpt lat="44.29558" lon="4.21459">
        <ele>297.18</ele>
        <time>2017-06-30T08:14:20Z</time>
      </trkpt>
      <trkpt lat="44.29563" lon="4.21464">
        <ele>296.7</ele>
        <time>2017-06-30T08:14:25Z</time>
      </trkpt>
      <trkpt lat="44.2957" lon="4.2148">
        <ele>296.7</ele>
        <time>2017-06-30T08:14:38Z</time>
      </trkpt>
      <trkpt lat="44.29574" lon="4.2149">
        <ele>296.7</ele>
        <time>2017-06-30T08:14:48Z</time>
      </trkpt>
      <trkpt lat="44.2958" lon="4.21493">
        <ele>295.74</ele>
        <time>2017-06-30T08:14:55Z</time>
      </trkpt>
      <trkpt lat="44.29586" lon="4.2149">
        <ele>294.78</ele>
        <time>2017-06-30T08:15:07Z</time>
      </trkpt>
      <trkpt lat="44.29587" lon="4.2149">
        <ele>294.3</ele>
        <time>2017-06-30T08:15:29Z</time>
      </trkpt>
      <trkpt lat="44.2959" lon="4.21489">
        <ele>292.86</ele>
        <time>2017-06-30T08:15:50Z</time>
      </trkpt>
      <trkpt lat="44.29586" lon="4.21487">
        <ele>294.3</ele>
        <time>2017-06-30T08:16:10Z</time>
      </trkpt>
      <trkpt lat="44.29587" lon="4.21489">
        <ele>294.3</ele>
        <time>2017-06-30T08:16:33Z</time>
      </trkpt>
      <trkpt lat="44.29589" lon="4.2149">
        <ele>294.3</ele>
        <time>2017-06-30T08:16:55Z</time>
      </trkpt>
      <trkpt lat="44.29589" lon="4.21491">
        <ele>294.3</ele>
        <time>2017-06-30T08:17:20Z</time>
      </trkpt>
      <trkpt lat="44.2959" lon="4.21491">
        <ele>294.78</ele>
        <time>2017-06-30T08:17:44Z</time>
      </trkpt>
      <trkpt lat="44.29592" lon="4.2149">
        <ele>293.34</ele>
        <time>2017-06-30T08:17:47Z</time>
      </trkpt>
      <trkpt lat="44.29597" lon="4.2149">
        <ele>292.38</ele>
        <time>2017-06-30T08:18:02Z</time>
      </trkpt>
      <trkpt lat="44.29606" lon="4.21487">
        <ele>291.9</ele>
        <time>2017-06-30T08:18:17Z</time>
      </trkpt>
      <trkpt lat="44.29614" lon="4.21485">
        <ele>289.49</ele>
        <time>2017-06-30T08:18:36Z</time>
      </trkpt>
      <trkpt lat="44.29626" lon="4.21483">
        <ele>287.09</ele>
        <time>2017-06-30T08:18:53Z</time>
      </trkpt>
      <trkpt lat="44.29637" lon="4.2148">
        <ele>285.17</ele>
        <time>2017-06-30T08:19:10Z</time>
      </trkpt>
      <trkpt lat="44.29638" lon="4.21479">
        <ele>285.17</ele>
        <time>2017-06-30T08:19:29Z</time>
      </trkpt>
      <trkpt lat="44.29645" lon="4.21479">
        <ele>283.73</ele>
        <time>2017-06-30T08:19:48Z</time>
      </trkpt>
      <trkpt lat="44.29654" lon="4.21478">
        <ele>281.8</ele>
        <time>2017-06-30T08:20:06Z</time>
      </trkpt>
      <trkpt lat="44.29664" lon="4.21476">
        <ele>278.92</ele>
        <time>2017-06-30T08:20:24Z</time>
      </trkpt>
      <trkpt lat="44.29673" lon="4.21475">
        <ele>277.48</ele>
        <time>2017-06-30T08:20:41Z</time>
      </trkpt>
      <trkpt lat="44.29686" lon="4.21473">
        <ele>274.59</ele>
        <time>2017-06-30T08:20:58Z</time>
      </trkpt>
      <trkpt lat="44.29697" lon="4.2147">
        <ele>271.71</ele>
        <time>2017-06-30T08:21:15Z</time>
      </trkpt>
      <trkpt lat="44.29708" lon="4.21469">
        <ele>269.31</ele>
        <time>2017-06-30T08:21:32Z</time>
      </trkpt>
      <trkpt lat="44.29721" lon="4.2147">
        <ele>267.38</ele>
        <time>2017-06-30T08:21:46Z</time>
      </trkpt>
      <trkpt lat="44.29733" lon="4.21467">
        <ele>264.5</ele>
        <time>2017-06-30T08:22:06Z</time>
      </trkpt>
      <trkpt lat="44.29743" lon="4.21463">
        <ele>262.1</ele>
        <time>2017-06-30T08:22:24Z</time>
      </trkpt>
      <trkpt lat="44.29767" lon="4.21461">
        <ele>259.21</ele>
        <time>2017-06-30T08:22:45Z</time>
      </trkpt>
      <trkpt lat="44.29775" lon="4.21457">
        <ele>256.81</ele>
        <time>2017-06-30T08:23:02Z</time>
      </trkpt>
      <trkpt lat="44.29783" lon="4.21457">
        <ele>256.81</ele>
        <time>2017-06-30T08:23:09Z</time>
      </trkpt>
      <trkpt lat="44.29795" lon="4.21457">
        <ele>255.85</ele>
        <time>2017-06-30T08:23:20Z</time>
      </trkpt>
      <trkpt lat="44.29801" lon="4.21455">
        <ele>255.85</ele>
        <time>2017-06-30T08:23:25Z</time>
      </trkpt>
      <trkpt lat="44.29809" lon="4.21453">
        <ele>256.81</ele>
        <time>2017-06-30T08:23:33Z</time>
      </trkpt>
      <trkpt lat="44.29812" lon="4.21454">
        <ele>256.81</ele>
        <time>2017-06-30T08:23:36Z</time>
      </trkpt>
      <trkpt lat="44.29822" lon="4.21451">
        <ele>256.81</ele>
        <time>2017-06-30T08:23:49Z</time>
      </trkpt>
      <trkpt lat="44.29834" lon="4.2145">
        <ele>256.81</ele>
        <time>2017-06-30T08:24:01Z</time>
      </trkpt>
      <trkpt lat="44.29838" lon="4.21448">
        <ele>256.81</ele>
        <time>2017-06-30T08:24:05Z</time>
      </trkpt>
      <trkpt lat="44.29852" lon="4.21447">
        <ele>255.85</ele>
        <time>2017-06-30T08:24:20Z</time>
      </trkpt>
      <trkpt lat="44.29863" lon="4.21444">
        <ele>255.85</ele>
        <time>2017-06-30T08:24:32Z</time>
      </trkpt>
      <trkpt lat="44.29866" lon="4.21444">
        <ele>255.85</ele>
        <time>2017-06-30T08:24:35Z</time>
      </trkpt>
      <trkpt lat="44.29872" lon="4.21444">
        <ele>254.89</ele>
        <time>2017-06-30T08:24:49Z</time>
      </trkpt>
      <trkpt lat="44.29872" lon="4.21444">
        <ele>254.89</ele>
        <time>2017-06-30T08:25:00Z</time>
      </trkpt>
      <trkpt lat="44.29874" lon="4.21442">
        <ele>254.41</ele>
        <time>2017-06-30T08:25:17Z</time>
      </trkpt>
      <trkpt lat="44.29874" lon="4.21441">
        <ele>254.41</ele>
        <time>2017-06-30T08:25:37Z</time>
      </trkpt>
      <trkpt lat="44.2988" lon="4.21441">
        <ele>253.93</ele>
        <time>2017-06-30T08:25:58Z</time>
      </trkpt>
      <trkpt lat="44.29897" lon="4.21439">
        <ele>252</ele>
        <time>2017-06-30T08:26:19Z</time>
      </trkpt>
      <trkpt lat="44.29912" lon="4.21434">
        <ele>250.56</ele>
        <time>2017-06-30T08:26:37Z</time>
      </trkpt>
      <trkpt lat="44.29923" lon="4.21438">
        <ele>251.04</ele>
        <time>2017-06-30T08:26:52Z</time>
      </trkpt>
      <trkpt lat="44.29919" lon="4.21448">
        <ele>251.52</ele>
        <time>2017-06-30T08:27:04Z</time>
      </trkpt>
      <trkpt lat="44.29915" lon="4.21461">
        <ele>251.52</ele>
        <time>2017-06-30T08:27:14Z</time>
      </trkpt>
      <trkpt lat="44.29914" lon="4.21463">
        <ele>251.52</ele>
        <time>2017-06-30T08:27:16Z</time>
      </trkpt>
      <trkpt lat="44.2991" lon="4.2148">
        <ele>252.96</ele>
        <time>2017-06-30T08:27:30Z</time>
      </trkpt>
      <trkpt lat="44.29908" lon="4.21489">
        <ele>252.96</ele>
        <time>2017-06-30T08:27:38Z</time>
      </trkpt>
      <trkpt lat="44.29902" lon="4.21505">
        <ele>253.44</ele>
        <time>2017-06-30T08:27:50Z</time>
      </trkpt>
      <trkpt lat="44.29892" lon="4.21525">
        <ele>253.44</ele>
        <time>2017-06-30T08:28:08Z</time>
      </trkpt>
      <trkpt lat="44.29886" lon="4.21536">
        <ele>252</ele>
        <time>2017-06-30T08:28:19Z</time>
      </trkpt>
      <trkpt lat="44.29881" lon="4.21551">
        <ele>251.52</ele>
        <time>2017-06-30T08:28:32Z</time>
      </trkpt>
      <trkpt lat="44.29877" lon="4.21562">
        <ele>250.56</ele>
        <time>2017-06-30T08:28:45Z</time>
      </trkpt>
      <trkpt lat="44.29871" lon="4.21576">
        <ele>250.08</ele>
        <time>2017-06-30T08:28:57Z</time>
      </trkpt>
      <trkpt lat="44.29869" lon="4.21587">
        <ele>250.08</ele>
        <time>2017-06-30T08:29:11Z</time>
      </trkpt>
      <trkpt lat="44.29864" lon="4.21604">
        <ele>250.56</ele>
        <time>2017-06-30T08:29:27Z</time>
      </trkpt>
      <trkpt lat="44.29862" lon="4.21613">
        <ele>250.56</ele>
        <time>2017-06-30T08:29:41Z</time>
      </trkpt>
      <trkpt lat="44.29859" lon="4.21623">
        <ele>250.56</ele>
        <time>2017-06-30T08:29:52Z</time>
      </trkpt>
      <trkpt lat="44.29857" lon="4.21635">
        <ele>249.12</ele>
        <time>2017-06-30T08:30:02Z</time>
      </trkpt>
      <trkpt lat="44.29851" lon="4.21637">
        <ele>249.6</ele>
        <time>2017-06-30T08:30:13Z</time>
      </trkpt>
      <trkpt lat="44.29851" lon="4.21636">
        <ele>249.6</ele>
        <time>2017-06-30T08:30:30Z</time>
      </trkpt>
      <trkpt lat="44.29849" lon="4.21637">
        <ele>249.6</ele>
        <time>2017-06-30T08:30:45Z</time>
      </trkpt>
      <trkpt lat="44.29849" lon="4.21636">
        <ele>249.6</ele>
        <time>2017-06-30T08:31:02Z</time>
      </trkpt>
      <trkpt lat="44.29848" lon="4.21638">
        <ele>249.6</ele>
        <time>2017-06-30T08:31:18Z</time>
      </trkpt>
      <trkpt lat="44.29852" lon="4.2164">
        <ele>249.6</ele>
        <time>2017-06-30T08:31:30Z</time>
      </trkpt>
      <trkpt lat="44.29855" lon="4.21646">
        <ele>248.64</ele>
        <time>2017-06-30T08:31:40Z</time>
      </trkpt>
      <trkpt lat="44.29853" lon="4.21657">
        <ele>248.16</ele>
        <time>2017-06-30T08:31:53Z</time>
      </trkpt>
      <trkpt lat="44.29855" lon="4.21657">
        <ele>248.16</ele>
        <time>2017-06-30T08:32:08Z</time>
      </trkpt>
      <trkpt lat="44.29857" lon="4.21655">
        <ele>248.16</ele>
        <time>2017-06-30T08:32:26Z</time>
      </trkpt>
      <trkpt lat="44.29855" lon="4.21657">
        <ele>248.16</ele>
        <time>2017-06-30T08:32:52Z</time>
      </trkpt>
      <trkpt lat="44.29854" lon="4.21663">
        <ele>248.16</ele>
        <time>2017-06-30T08:33:02Z</time>
      </trkpt>
      <trkpt lat="44.29854" lon="4.21675">
        <ele>247.2</ele>
        <time>2017-06-30T08:33:12Z</time>
      </trkpt>
      <trkpt lat="44.29854" lon="4.21692">
        <ele>246.72</ele>
        <time>2017-06-30T08:33:25Z</time>
      </trkpt>
      <trkpt lat="44.29856" lon="4.21709">
        <ele>246.23</ele>
        <time>2017-06-30T08:33:42Z</time>
      </trkpt>
      <trkpt lat="44.29857" lon="4.21709">
        <ele>245.27</ele>
        <time>2017-06-30T08:33:46Z</time>
      </trkpt>
      <trkpt lat="44.29862" lon="4.21707">
        <ele>244.79</ele>
        <time>2017-06-30T08:33:51Z</time>
      </trkpt>
      <trkpt lat="44.29871" lon="4.21694">
        <ele>244.31</ele>
        <time>2017-06-30T08:34:04Z</time>
      </trkpt>
      <trkpt lat="44.29875" lon="4.21701">
        <ele>243.83</ele>
        <time>2017-06-30T08:34:16Z</time>
      </trkpt>
      <trkpt lat="44.29878" lon="4.21717">
        <ele>242.87</ele>
        <time>2017-06-30T08:34:27Z</time>
      </trkpt>
      <trkpt lat="44.29881" lon="4.21726">
        <ele>241.91</ele>
        <time>2017-06-30T08:34:35Z</time>
      </trkpt>
      <trkpt lat="44.29883" lon="4.2173">
        <ele>241.43</ele>
        <time>2017-06-30T08:34:39Z</time>
      </trkpt>
      <trkpt lat="44.29885" lon="4.21734">
        <ele>241.43</ele>
        <time>2017-06-30T08:34:44Z</time>
      </trkpt>
      <trkpt lat="44.29889" lon="4.21737">
        <ele>240.47</ele>
        <time>2017-06-30T08:34:49Z</time>
      </trkpt>
      <trkpt lat="44.29897" lon="4.21738">
        <ele>239.51</ele>
        <time>2017-06-30T08:35:00Z</time>
      </trkpt>
      <trkpt lat="44.29901" lon="4.21738">
        <ele>239.02</ele>
        <time>2017-06-30T08:35:05Z</time>
      </trkpt>
      <trkpt lat="44.29908" lon="4.21734">
        <ele>237.58</ele>
        <time>2017-06-30T08:35:12Z</time>
      </trkpt>
      <trkpt lat="44.29913" lon="4.21733">
        <ele>237.58</ele>
        <time>2017-06-30T08:35:18Z</time>
      </trkpt>
      <trkpt lat="44.29917" lon="4.21737">
        <ele>236.62</ele>
        <time>2017-06-30T08:35:24Z</time>
      </trkpt>
      <trkpt lat="44.29923" lon="4.21752">
        <ele>236.14</ele>
        <time>2017-06-30T08:35:36Z</time>
      </trkpt>
      <trkpt lat="44.29928" lon="4.21749">
        <ele>234.7</ele>
        <time>2017-06-30T08:35:46Z</time>
      </trkpt>
      <trkpt lat="44.2993" lon="4.21746">
        <ele>234.7</ele>
        <time>2017-06-30T08:35:56Z</time>
      </trkpt>
      <trkpt lat="44.2993" lon="4.21745">
        <ele>234.7</ele>
        <time>2017-06-30T08:36:00Z</time>
      </trkpt>
      <trkpt lat="44.29937" lon="4.21741">
        <ele>233.26</ele>
        <time>2017-06-30T08:36:11Z</time>
      </trkpt>
      <trkpt lat="44.29945" lon="4.21737">
        <ele>232.3</ele>
        <time>2017-06-30T08:36:22Z</time>
      </trkpt>
      <trkpt lat="44.29948" lon="4.21734">
        <ele>231.33</ele>
        <time>2017-06-30T08:36:27Z</time>
      </trkpt>
      <trkpt lat="44.29958" lon="4.21727">
        <ele>230.37</ele>
        <time>2017-06-30T08:36:39Z</time>
      </trkpt>
      <trkpt lat="44.29959" lon="4.21726">
        <ele>230.37</ele>
        <time>2017-06-30T08:36:40Z</time>
      </trkpt>
      <trkpt lat="44.29967" lon="4.21726">
        <ele>228.93</ele>
        <time>2017-06-30T08:36:51Z</time>
      </trkpt>
      <trkpt lat="44.29976" lon="4.21717">
        <ele>227.97</ele>
        <time>2017-06-30T08:37:02Z</time>
      </trkpt>
      <trkpt lat="44.29985" lon="4.21725">
        <ele>227.97</ele>
        <time>2017-06-30T08:37:13Z</time>
      </trkpt>
      <trkpt lat="44.29992" lon="4.21735">
        <ele>227.97</ele>
        <time>2017-06-30T08:37:25Z</time>
      </trkpt>
      <trkpt lat="44.29998" lon="4.21748">
        <ele>228.93</ele>
        <time>2017-06-30T08:37:38Z</time>
      </trkpt>
      <trkpt lat="44.29997" lon="4.21756">
        <ele>229.41</ele>
        <time>2017-06-30T08:37:55Z</time>
      </trkpt>
      <trkpt lat="44.30001" lon="4.21764">
        <ele>229.89</ele>
        <time>2017-06-30T08:38:08Z</time>
      </trkpt>
      <trkpt lat="44.30005" lon="4.21769">
        <ele>230.37</ele>
        <time>2017-06-30T08:38:21Z</time>
      </trkpt>
      <trkpt lat="44.30006" lon="4.21771">
        <ele>230.85</ele>
        <time>2017-06-30T08:38:24Z</time>
      </trkpt>
      <trkpt lat="44.30015" lon="4.21781">
        <ele>230.85</ele>
        <time>2017-06-30T08:38:37Z</time>
      </trkpt>
      <trkpt lat="44.30023" lon="4.21784">
        <ele>229.41</ele>
        <time>2017-06-30T08:38:48Z</time>
      </trkpt>
      <trkpt lat="44.30028" lon="4.21786">
        <ele>228.45</ele>
        <time>2017-06-30T08:38:57Z</time>
      </trkpt>
      <trkpt lat="44.30035" lon="4.21796">
        <ele>227.97</ele>
        <time>2017-06-30T08:39:09Z</time>
      </trkpt>
      <trkpt lat="44.30041" lon="4.21808">
        <ele>227.97</ele>
        <time>2017-06-30T08:39:24Z</time>
      </trkpt>
      <trkpt lat="44.30043" lon="4.21815">
        <ele>227.97</ele>
        <time>2017-06-30T08:39:40Z</time>
      </trkpt>
      <trkpt lat="44.30042" lon="4.21818">
        <ele>229.41</ele>
        <time>2017-06-30T08:39:50Z</time>
      </trkpt>
      <trkpt lat="44.30037" lon="4.21825">
        <ele>230.37</ele>
        <time>2017-06-30T08:40:03Z</time>
      </trkpt>
      <trkpt lat="44.30035" lon="4.21831">
        <ele>231.81</ele>
        <time>2017-06-30T08:40:16Z</time>
      </trkpt>
      <trkpt lat="44.30039" lon="4.21837">
        <ele>231.81</ele>
        <time>2017-06-30T08:40:29Z</time>
      </trkpt>
      <trkpt lat="44.30035" lon="4.21846">
        <ele>231.81</ele>
        <time>2017-06-30T08:40:43Z</time>
      </trkpt>
      <trkpt lat="44.30038" lon="4.21854">
        <ele>231.81</ele>
        <time>2017-06-30T08:40:59Z</time>
      </trkpt>
      <trkpt lat="44.30039" lon="4.21857">
        <ele>230.37</ele>
        <time>2017-06-30T08:41:05Z</time>
      </trkpt>
      <trkpt lat="44.30041" lon="4.21864">
        <ele>228.93</ele>
        <time>2017-06-30T08:41:19Z</time>
      </trkpt>
      <trkpt lat="44.30046" lon="4.21872">
        <ele>227.97</ele>
        <time>2017-06-30T08:41:32Z</time>
      </trkpt>
      <trkpt lat="44.30047" lon="4.21874">
        <ele>227.97</ele>
        <time>2017-06-30T08:41:39Z</time>
      </trkpt>
      <trkpt lat="44.30048" lon="4.21882">
        <ele>227.01</ele>
        <time>2017-06-30T08:41:52Z</time>
      </trkpt>
      <trkpt lat="44.30049" lon="4.21881">
        <ele>227.01</ele>
        <time>2017-06-30T08:42:10Z</time>
      </trkpt>
      <trkpt lat="44.3004" lon="4.21886">
        <ele>228.93</ele>
        <time>2017-06-30T08:42:25Z</time>
      </trkpt>
      <trkpt lat="44.30035" lon="4.21886">
        <ele>229.89</ele>
        <time>2017-06-30T08:42:40Z</time>
      </trkpt>
      <trkpt lat="44.30037" lon="4.21887">
        <ele>229.89</ele>
        <time>2017-06-30T08:43:14Z</time>
      </trkpt>
      <trkpt lat="44.30036" lon="4.21887">
        <ele>227.97</ele>
        <time>2017-06-30T08:43:27Z</time>
      </trkpt>
      <trkpt lat="44.30036" lon="4.21886">
        <ele>232.78</ele>
        <time>2017-06-30T08:43:28Z</time>
      </trkpt>
      <trkpt lat="44.30036" lon="4.21886">
        <ele>229.41</ele>
        <time>2017-06-30T08:43:29Z</time>
      </trkpt>
      <trkpt lat="44.30034" lon="4.21886">
        <ele>228.93</ele>
        <time>2017-06-30T08:43:55Z</time>
      </trkpt>
      <trkpt lat="44.30034" lon="4.21884">
        <ele>229.41</ele>
        <time>2017-06-30T08:44:30Z</time>
      </trkpt>
      <trkpt lat="44.30035" lon="4.21888">
        <ele>229.41</ele>
        <time>2017-06-30T08:45:01Z</time>
      </trkpt>
      <trkpt lat="44.30038" lon="4.21891">
        <ele>230.37</ele>
        <time>2017-06-30T08:45:18Z</time>
      </trkpt>
      <trkpt lat="44.30036" lon="4.21888">
        <ele>230.37</ele>
        <time>2017-06-30T08:45:49Z</time>
      </trkpt>
      <trkpt lat="44.30037" lon="4.21885">
        <ele>228.93</ele>
        <time>2017-06-30T08:46:13Z</time>
      </trkpt>
      <trkpt lat="44.30037" lon="4.21885">
        <ele>229.89</ele>
        <time>2017-06-30T08:46:15Z</time>
      </trkpt>
      <trkpt lat="44.30037" lon="4.21886">
        <ele>228.45</ele>
        <time>2017-06-30T08:46:26Z</time>
      </trkpt>
      <trkpt lat="44.30037" lon="4.21886">
        <ele>229.89</ele>
        <time>2017-06-30T08:46:28Z</time>
      </trkpt>
      <trkpt lat="44.30036" lon="4.21889">
        <ele>228.45</ele>
        <time>2017-06-30T08:46:38Z</time>
      </trkpt>
      <trkpt lat="44.30036" lon="4.21888">
        <ele>231.81</ele>
        <time>2017-06-30T08:46:39Z</time>
      </trkpt>
      <trkpt lat="44.30036" lon="4.21887">
        <ele>231.81</ele>
        <time>2017-06-30T08:46:40Z</time>
      </trkpt>
      <trkpt lat="44.30035" lon="4.21886">
        <ele>228.93</ele>
        <time>2017-06-30T08:46:42Z</time>
      </trkpt>
      <trkpt lat="44.30036" lon="4.21883">
        <ele>229.41</ele>
        <time>2017-06-30T08:46:48Z</time>
      </trkpt>
      <trkpt lat="44.30038" lon="4.21885">
        <ele>229.89</ele>
        <time>2017-06-30T08:47:04Z</time>
      </trkpt>
      <trkpt lat="44.30035" lon="4.21888">
        <ele>229.89</ele>
        <time>2017-06-30T08:47:27Z</time>
      </trkpt>
      <trkpt lat="44.30037" lon="4.21886">
        <ele>229.89</ele>
        <time>2017-06-30T08:48:02Z</time>
      </trkpt>
      <trkpt lat="44.30039" lon="4.21888">
        <ele>228.93</ele>
        <time>2017-06-30T08:48:14Z</time>
      </trkpt>
      <trkpt lat="44.30037" lon="4.21886">
        <ele>228.93</ele>
        <time>2017-06-30T08:48:44Z</time>
      </trkpt>
      <trkpt lat="44.30036" lon="4.21889">
        <ele>228.93</ele>
        <time>2017-06-30T08:49:05Z</time>
      </trkpt>
      <trkpt lat="44.30038" lon="4.21888">
        <ele>228.93</ele>
        <time>2017-06-30T08:49:39Z</time>
      </trkpt>
      <trkpt lat="44.30042" lon="4.21887">
        <ele>227.97</ele>
        <time>2017-06-30T08:50:06Z</time>
      </trkpt>
      <trkpt lat="44.30043" lon="4.21887">
        <ele>227.49</ele>
        <time>2017-06-30T08:50:17Z</time>
      </trkpt>
      <trkpt lat="44.30049" lon="4.21882">
        <ele>227.49</ele>
        <time>2017-06-30T08:50:30Z</time>
      </trkpt>
      <trkpt lat="44.30046" lon="4.21868">
        <ele>227.49</ele>
        <time>2017-06-30T08:50:44Z</time>
      </trkpt>
      <trkpt lat="44.30043" lon="4.21865">
        <ele>229.41</ele>
        <time>2017-06-30T08:50:55Z</time>
      </trkpt>
      <trkpt lat="44.30039" lon="4.21856">
        <ele>231.33</ele>
        <time>2017-06-30T08:51:08Z</time>
      </trkpt>
      <trkpt lat="44.30035" lon="4.21847">
        <ele>231.33</ele>
        <time>2017-06-30T08:51:27Z</time>
      </trkpt>
      <trkpt lat="44.30035" lon="4.21846">
        <ele>231.33</ele>
        <time>2017-06-30T08:51:28Z</time>
      </trkpt>
      <trkpt lat="44.30035" lon="4.21844">
        <ele>231.81</ele>
        <time>2017-06-30T08:51:46Z</time>
      </trkpt>
      <trkpt lat="44.30037" lon="4.21839">
        <ele>231.81</ele>
        <time>2017-06-30T08:51:55Z</time>
      </trkpt>
      <trkpt lat="44.30034" lon="4.21829">
        <ele>231.81</ele>
        <time>2017-06-30T08:52:08Z</time>
      </trkpt>
      <trkpt lat="44.30036" lon="4.21826">
        <ele>230.37</ele>
        <time>2017-06-30T08:52:17Z</time>
      </trkpt>
      <trkpt lat="44.3004" lon="4.2182">
        <ele>230.85</ele>
        <time>2017-06-30T08:52:28Z</time>
      </trkpt>
      <trkpt lat="44.30044" lon="4.21813">
        <ele>228.45</ele>
        <time>2017-06-30T08:52:43Z</time>
      </trkpt>
      <trkpt lat="44.30039" lon="4.218">
        <ele>227.01</ele>
        <time>2017-06-30T08:52:59Z</time>
      </trkpt>
      <trkpt lat="44.3003" lon="4.21786">
        <ele>229.41</ele>
        <time>2017-06-30T08:53:15Z</time>
      </trkpt>
      <trkpt lat="44.30027" lon="4.21782">
        <ele>229.89</ele>
        <time>2017-06-30T08:53:28Z</time>
      </trkpt>
      <trkpt lat="44.30026" lon="4.21784">
        <ele>229.89</ele>
        <time>2017-06-30T08:53:50Z</time>
      </trkpt>
      <trkpt lat="44.30025" lon="4.21782">
        <ele>230.37</ele>
        <time>2017-06-30T08:54:09Z</time>
      </trkpt>
      <trkpt lat="44.30024" lon="4.2178">
        <ele>228.93</ele>
        <time>2017-06-30T08:54:17Z</time>
      </trkpt>
      <trkpt lat="44.30023" lon="4.21784">
        <ele>232.78</ele>
        <time>2017-06-30T08:54:36Z</time>
      </trkpt>
      <trkpt lat="44.30025" lon="4.21781">
        <ele>229.89</ele>
        <time>2017-06-30T08:54:51Z</time>
      </trkpt>
      <trkpt lat="44.30035" lon="4.2177">
        <ele>228.93</ele>
        <time>2017-06-30T08:55:06Z</time>
      </trkpt>
      <trkpt lat="44.30043" lon="4.21767">
        <ele>227.01</ele>
        <time>2017-06-30T08:55:19Z</time>
      </trkpt>
      <trkpt lat="44.30049" lon="4.21765">
        <ele>226.53</ele>
        <time>2017-06-30T08:55:29Z</time>
      </trkpt>
      <trkpt lat="44.30059" lon="4.21759">
        <ele>225.09</ele>
        <time>2017-06-30T08:55:41Z</time>
      </trkpt>
      <trkpt lat="44.30074" lon="4.21752">
        <ele>223.64</ele>
        <time>2017-06-30T08:55:53Z</time>
      </trkpt>
      <trkpt lat="44.30079" lon="4.21759">
        <ele>223.64</ele>
        <time>2017-06-30T08:56:09Z</time>
      </trkpt>
      <trkpt lat="44.30087" lon="4.21762">
        <ele>223.64</ele>
        <time>2017-06-30T08:56:23Z</time>
      </trkpt>
      <trkpt lat="44.30093" lon="4.21766">
        <ele>223.16</ele>
        <time>2017-06-30T08:56:38Z</time>
      </trkpt>
      <trkpt lat="44.301" lon="4.21775">
        <ele>221.24</ele>
        <time>2017-06-30T08:56:51Z</time>
      </trkpt>
      <trkpt lat="44.30108" lon="4.21777">
        <ele>221.24</ele>
        <time>2017-06-30T08:57:04Z</time>
      </trkpt>
      <trkpt lat="44.30111" lon="4.21789">
        <ele>219.8</ele>
        <time>2017-06-30T08:57:17Z</time>
      </trkpt>
      <trkpt lat="44.30118" lon="4.21801">
        <ele>218.84</ele>
        <time>2017-06-30T08:57:32Z</time>
      </trkpt>
      <trkpt lat="44.30127" lon="4.218">
        <ele>216.91</ele>
        <time>2017-06-30T08:57:51Z</time>
      </trkpt>
      <trkpt lat="44.30128" lon="4.218">
        <ele>216.43</ele>
        <time>2017-06-30T08:58:07Z</time>
      </trkpt>
      <trkpt lat="44.30135" lon="4.21799">
        <ele>215.47</ele>
        <time>2017-06-30T08:58:18Z</time>
      </trkpt>
      <trkpt lat="44.30145" lon="4.218">
        <ele>214.51</ele>
        <time>2017-06-30T08:58:32Z</time>
      </trkpt>
      <trkpt lat="44.30147" lon="4.21799">
        <ele>214.03</ele>
        <time>2017-06-30T08:58:48Z</time>
      </trkpt>
      <trkpt lat="44.30157" lon="4.21799">
        <ele>213.07</ele>
        <time>2017-06-30T08:59:02Z</time>
      </trkpt>
      <trkpt lat="44.30162" lon="4.21798">
        <ele>212.59</ele>
        <time>2017-06-30T08:59:15Z</time>
      </trkpt>
      <trkpt lat="44.3017" lon="4.21798">
        <ele>211.63</ele>
        <time>2017-06-30T08:59:28Z</time>
      </trkpt>
      <trkpt lat="44.30174" lon="4.21797">
        <ele>211.15</ele>
        <time>2017-06-30T08:59:49Z</time>
      </trkpt>
      <trkpt lat="44.30173" lon="4.21799">
        <ele>211.15</ele>
        <time>2017-06-30T09:00:13Z</time>
      </trkpt>
      <trkpt lat="44.30173" lon="4.21799">
        <ele>211.15</ele>
        <time>2017-06-30T09:00:40Z</time>
      </trkpt>
      <trkpt lat="44.30187" lon="4.21795">
        <ele>209.7</ele>
        <time>2017-06-30T09:00:56Z</time>
      </trkpt>
      <trkpt lat="44.30194" lon="4.21783">
        <ele>209.7</ele>
        <time>2017-06-30T09:01:11Z</time>
      </trkpt>
      <trkpt lat="44.30193" lon="4.21769">
        <ele>211.63</ele>
        <time>2017-06-30T09:01:26Z</time>
      </trkpt>
      <trkpt lat="44.30192" lon="4.21754">
        <ele>212.11</ele>
        <time>2017-06-30T09:01:38Z</time>
      </trkpt>
      <trkpt lat="44.30192" lon="4.21751">
        <ele>212.11</ele>
        <time>2017-06-30T09:01:41Z</time>
      </trkpt>
      <trkpt lat="44.3019" lon="4.21745">
        <ele>213.07</ele>
        <time>2017-06-30T09:01:55Z</time>
      </trkpt>
      <trkpt lat="44.30189" lon="4.21747">
        <ele>213.07</ele>
        <time>2017-06-30T09:02:14Z</time>
      </trkpt>
      <trkpt lat="44.30193" lon="4.21745">
        <ele>213.07</ele>
        <time>2017-06-30T09:02:35Z</time>
      </trkpt>
      <trkpt lat="44.30192" lon="4.21738">
        <ele>213.55</ele>
        <time>2017-06-30T09:02:50Z</time>
      </trkpt>
      <trkpt lat="44.30187" lon="4.21734">
        <ele>214.03</ele>
        <time>2017-06-30T09:03:01Z</time>
      </trkpt>
      <trkpt lat="44.30181" lon="4.21735">
        <ele>215.47</ele>
        <time>2017-06-30T09:03:13Z</time>
      </trkpt>
      <trkpt lat="44.3018" lon="4.21721">
        <ele>216.91</ele>
        <time>2017-06-30T09:03:28Z</time>
      </trkpt>
      <trkpt lat="44.30174" lon="4.21715">
        <ele>218.84</ele>
        <time>2017-06-30T09:03:41Z</time>
      </trkpt>
      <trkpt lat="44.30167" lon="4.21708">
        <ele>220.76</ele>
        <time>2017-06-30T09:03:55Z</time>
      </trkpt>
      <trkpt lat="44.30163" lon="4.21702">
        <ele>221.72</ele>
        <time>2017-06-30T09:04:10Z</time>
      </trkpt>
      <trkpt lat="44.30156" lon="4.21694">
        <ele>223.16</ele>
        <time>2017-06-30T09:04:26Z</time>
      </trkpt>
      <trkpt lat="44.30151" lon="4.21689">
        <ele>223.64</ele>
        <time>2017-06-30T09:04:40Z</time>
      </trkpt>
      <trkpt lat="44.30148" lon="4.21689">
        <ele>224.61</ele>
        <time>2017-06-30T09:04:55Z</time>
      </trkpt>
      <trkpt lat="44.30148" lon="4.21687">
        <ele>225.09</ele>
        <time>2017-06-30T09:05:12Z</time>
      </trkpt>
      <trkpt lat="44.30144" lon="4.21681">
        <ele>225.57</ele>
        <time>2017-06-30T09:05:31Z</time>
      </trkpt>
      <trkpt lat="44.30137" lon="4.21674">
        <ele>227.49</ele>
        <time>2017-06-30T09:05:44Z</time>
      </trkpt>
      <trkpt lat="44.3013" lon="4.21667">
        <ele>228.93</ele>
        <time>2017-06-30T09:06:00Z</time>
      </trkpt>
      <trkpt lat="44.30128" lon="4.21658">
        <ele>230.85</ele>
        <time>2017-06-30T09:06:16Z</time>
      </trkpt>
      <trkpt lat="44.30125" lon="4.2165">
        <ele>231.81</ele>
        <time>2017-06-30T09:06:29Z</time>
      </trkpt>
      <trkpt lat="44.3012" lon="4.21642">
        <ele>232.3</ele>
        <time>2017-06-30T09:06:44Z</time>
      </trkpt>
      <trkpt lat="44.30116" lon="4.21633">
        <ele>233.74</ele>
        <time>2017-06-30T09:07:00Z</time>
      </trkpt>
      <trkpt lat="44.30111" lon="4.21628">
        <ele>235.18</ele>
        <time>2017-06-30T09:07:12Z</time>
      </trkpt>
      <trkpt lat="44.30111" lon="4.21627">
        <ele>235.18</ele>
        <time>2017-06-30T09:07:31Z</time>
      </trkpt>
      <trkpt lat="44.30111" lon="4.21626">
        <ele>235.18</ele>
        <time>2017-06-30T09:07:59Z</time>
      </trkpt>
      <trkpt lat="44.30109" lon="4.21621">
        <ele>235.66</ele>
        <time>2017-06-30T09:08:21Z</time>
      </trkpt>
      <trkpt lat="44.30102" lon="4.21614">
        <ele>236.14</ele>
        <time>2017-06-30T09:08:36Z</time>
      </trkpt>
      <trkpt lat="44.30105" lon="4.21609">
        <ele>236.14</ele>
        <time>2017-06-30T09:08:50Z</time>
      </trkpt>
      <trkpt lat="44.30106" lon="4.21602">
        <ele>237.1</ele>
        <time>2017-06-30T09:09:03Z</time>
      </trkpt>
      <trkpt lat="44.30105" lon="4.21591">
        <ele>237.58</ele>
        <time>2017-06-30T09:09:16Z</time>
      </trkpt>
      <trkpt lat="44.30102" lon="4.2158">
        <ele>238.06</ele>
        <time>2017-06-30T09:09:29Z</time>
      </trkpt>
      <trkpt lat="44.30106" lon="4.21569">
        <ele>238.06</ele>
        <time>2017-06-30T09:09:43Z</time>
      </trkpt>
      <trkpt lat="44.30103" lon="4.21565">
        <ele>239.02</ele>
        <time>2017-06-30T09:09:54Z</time>
      </trkpt>
      <trkpt lat="44.30103" lon="4.21558">
        <ele>239.02</ele>
        <time>2017-06-30T09:10:07Z</time>
      </trkpt>
      <trkpt lat="44.30108" lon="4.21546">
        <ele>238.54</ele>
        <time>2017-06-30T09:10:22Z</time>
      </trkpt>
      <trkpt lat="44.30109" lon="4.21539">
        <ele>238.54</ele>
        <time>2017-06-30T09:10:28Z</time>
      </trkpt>
      <trkpt lat="44.30105" lon="4.2153">
        <ele>239.51</ele>
        <time>2017-06-30T09:10:41Z</time>
      </trkpt>
      <trkpt lat="44.30108" lon="4.21524">
        <ele>239.51</ele>
        <time>2017-06-30T09:10:54Z</time>
      </trkpt>
      <trkpt lat="44.30113" lon="4.21512">
        <ele>238.54</ele>
        <time>2017-06-30T09:11:09Z</time>
      </trkpt>
      <trkpt lat="44.30122" lon="4.21504">
        <ele>236.62</ele>
        <time>2017-06-30T09:11:26Z</time>
      </trkpt>
      <trkpt lat="44.3013" lon="4.21498">
        <ele>235.66</ele>
        <time>2017-06-30T09:11:41Z</time>
      </trkpt>
      <trkpt lat="44.30137" lon="4.21487">
        <ele>234.7</ele>
        <time>2017-06-30T09:11:57Z</time>
      </trkpt>
      <trkpt lat="44.30141" lon="4.2148">
        <ele>233.74</ele>
        <time>2017-06-30T09:12:14Z</time>
      </trkpt>
      <trkpt lat="44.30148" lon="4.21472">
        <ele>233.74</ele>
        <time>2017-06-30T09:12:26Z</time>
      </trkpt>
      <trkpt lat="44.3015" lon="4.21471">
        <ele>233.74</ele>
        <time>2017-06-30T09:12:52Z</time>
      </trkpt>
      <trkpt lat="44.30146" lon="4.21462">
        <ele>233.74</ele>
        <time>2017-06-30T09:13:07Z</time>
      </trkpt>
      <trkpt lat="44.30138" lon="4.21458">
        <ele>233.74</ele>
        <time>2017-06-30T09:13:19Z</time>
      </trkpt>
      <trkpt lat="44.30137" lon="4.21455">
        <ele>235.18</ele>
        <time>2017-06-30T09:13:24Z</time>
      </trkpt>
      <trkpt lat="44.30133" lon="4.21447">
        <ele>236.14</ele>
        <time>2017-06-30T09:13:35Z</time>
      </trkpt>
      <trkpt lat="44.30135" lon="4.2144">
        <ele>234.7</ele>
        <time>2017-06-30T09:13:48Z</time>
      </trkpt>
      <trkpt lat="44.30141" lon="4.21427">
        <ele>233.74</ele>
        <time>2017-06-30T09:14:03Z</time>
      </trkpt>
      <trkpt lat="44.30142" lon="4.21425">
        <ele>233.74</ele>
        <time>2017-06-30T09:14:05Z</time>
      </trkpt>
      <trkpt lat="44.30147" lon="4.21413">
        <ele>232.78</ele>
        <time>2017-06-30T09:14:20Z</time>
      </trkpt>
      <trkpt lat="44.30151" lon="4.21401">
        <ele>231.81</ele>
        <time>2017-06-30T09:14:33Z</time>
      </trkpt>
      <trkpt lat="44.30152" lon="4.21397">
        <ele>230.85</ele>
        <time>2017-06-30T09:14:47Z</time>
      </trkpt>
      <trkpt lat="44.30151" lon="4.21396">
        <ele>230.85</ele>
        <time>2017-06-30T09:15:06Z</time>
      </trkpt>
      <trkpt lat="44.30154" lon="4.21392">
        <ele>230.85</ele>
        <time>2017-06-30T09:15:17Z</time>
      </trkpt>
      <trkpt lat="44.30157" lon="4.2139">
        <ele>230.85</ele>
        <time>2017-06-30T09:15:32Z</time>
      </trkpt>
      <trkpt lat="44.30161" lon="4.21384">
        <ele>230.37</ele>
        <time>2017-06-30T09:15:48Z</time>
      </trkpt>
      <trkpt lat="44.30166" lon="4.21374">
        <ele>229.89</ele>
        <time>2017-06-30T09:16:02Z</time>
      </trkpt>
      <trkpt lat="44.30171" lon="4.21366">
        <ele>229.41</ele>
        <time>2017-06-30T09:16:12Z</time>
      </trkpt>
      <trkpt lat="44.30176" lon="4.21356">
        <ele>229.41</ele>
        <time>2017-06-30T09:16:27Z</time>
      </trkpt>
      <trkpt lat="44.30185" lon="4.21353">
        <ele>229.41</ele>
        <time>2017-06-30T09:16:40Z</time>
      </trkpt>
      <trkpt lat="44.30198" lon="4.2135">
        <ele>229.41</ele>
        <time>2017-06-30T09:16:55Z</time>
      </trkpt>
      <trkpt lat="44.30208" lon="4.21354">
        <ele>229.41</ele>
        <time>2017-06-30T09:17:09Z</time>
      </trkpt>
      <trkpt lat="44.30208" lon="4.21358">
        <ele>228.93</ele>
        <time>2017-06-30T09:17:26Z</time>
      </trkpt>
      <trkpt lat="44.30208" lon="4.21357">
        <ele>229.89</ele>
        <time>2017-06-30T09:17:52Z</time>
      </trkpt>
      <trkpt lat="44.30216" lon="4.21359">
        <ele>228.93</ele>
        <time>2017-06-30T09:18:06Z</time>
      </trkpt>
      <trkpt lat="44.30224" lon="4.21361">
        <ele>227.49</ele>
        <time>2017-06-30T09:18:22Z</time>
      </trkpt>
      <trkpt lat="44.30233" lon="4.21362">
        <ele>226.05</ele>
        <time>2017-06-30T09:18:36Z</time>
      </trkpt>
      <trkpt lat="44.30244" lon="4.21361">
        <ele>225.09</ele>
        <time>2017-06-30T09:18:51Z</time>
      </trkpt>
      <trkpt lat="44.30252" lon="4.21355">
        <ele>223.64</ele>
        <time>2017-06-30T09:19:05Z</time>
      </trkpt>
      <trkpt lat="44.30259" lon="4.21353">
        <ele>222.2</ele>
        <time>2017-06-30T09:19:20Z</time>
      </trkpt>
      <trkpt lat="44.3026" lon="4.21345">
        <ele>220.28</ele>
        <time>2017-06-30T09:19:34Z</time>
      </trkpt>
      <trkpt lat="44.30263" lon="4.21339">
        <ele>219.8</ele>
        <time>2017-06-30T09:19:48Z</time>
      </trkpt>
      <trkpt lat="44.30264" lon="4.21337">
        <ele>218.84</ele>
        <time>2017-06-30T09:20:03Z</time>
      </trkpt>
      <trkpt lat="44.30267" lon="4.21328">
        <ele>217.4</ele>
        <time>2017-06-30T09:20:17Z</time>
      </trkpt>
      <trkpt lat="44.3027" lon="4.21329">
        <ele>216.91</ele>
        <time>2017-06-30T09:20:31Z</time>
      </trkpt>
      <trkpt lat="44.30274" lon="4.21323">
        <ele>216.43</ele>
        <time>2017-06-30T09:20:48Z</time>
      </trkpt>
      <trkpt lat="44.30272" lon="4.21323">
        <ele>216.43</ele>
        <time>2017-06-30T09:21:06Z</time>
      </trkpt>
      <trkpt lat="44.30268" lon="4.21323">
        <ele>216.43</ele>
        <time>2017-06-30T09:21:31Z</time>
      </trkpt>
      <trkpt lat="44.30268" lon="4.21321">
        <ele>216.43</ele>
        <time>2017-06-30T09:21:44Z</time>
      </trkpt>
      <trkpt lat="44.30265" lon="4.21315">
        <ele>215.95</ele>
        <time>2017-06-30T09:21:56Z</time>
      </trkpt>
      <trkpt lat="44.30261" lon="4.21305">
        <ele>215.95</ele>
        <time>2017-06-30T09:22:12Z</time>
      </trkpt>
      <trkpt lat="44.3026" lon="4.213">
        <ele>215.95</ele>
        <time>2017-06-30T09:22:17Z</time>
      </trkpt>
      <trkpt lat="44.3026" lon="4.21294">
        <ele>215.95</ele>
        <time>2017-06-30T09:22:22Z</time>
      </trkpt>
      <trkpt lat="44.30257" lon="4.21278">
        <ele>215.95</ele>
        <time>2017-06-30T09:22:34Z</time>
      </trkpt>
      <trkpt lat="44.30257" lon="4.21274">
        <ele>215.95</ele>
        <time>2017-06-30T09:22:37Z</time>
      </trkpt>
      <trkpt lat="44.30253" lon="4.21261">
        <ele>215.95</ele>
        <time>2017-06-30T09:22:48Z</time>
      </trkpt>
      <trkpt lat="44.30252" lon="4.21252">
        <ele>215.47</ele>
        <time>2017-06-30T09:22:54Z</time>
      </trkpt>
      <trkpt lat="44.30251" lon="4.21247">
        <ele>215.47</ele>
        <time>2017-06-30T09:22:59Z</time>
      </trkpt>
      <trkpt lat="44.30249" lon="4.21235">
        <ele>214.99</ele>
        <time>2017-06-30T09:23:11Z</time>
      </trkpt>
      <trkpt lat="44.30247" lon="4.2122">
        <ele>214.51</ele>
        <time>2017-06-30T09:23:22Z</time>
      </trkpt>
      <trkpt lat="44.30247" lon="4.21217">
        <ele>214.03</ele>
        <time>2017-06-30T09:23:24Z</time>
      </trkpt>
      <trkpt lat="44.30246" lon="4.21206">
        <ele>213.55</ele>
        <time>2017-06-30T09:23:35Z</time>
      </trkpt>
      <trkpt lat="44.30246" lon="4.21202">
        <ele>213.07</ele>
        <time>2017-06-30T09:23:40Z</time>
      </trkpt>
      <trkpt lat="44.30241" lon="4.21185">
        <ele>212.59</ele>
        <time>2017-06-30T09:23:52Z</time>
      </trkpt>
      <trkpt lat="44.30238" lon="4.21172">
        <ele>211.63</ele>
        <time>2017-06-30T09:24:03Z</time>
      </trkpt>
      <trkpt lat="44.30234" lon="4.21164">
        <ele>210.19</ele>
        <time>2017-06-30T09:24:13Z</time>
      </trkpt>
      <trkpt lat="44.30234" lon="4.21151">
        <ele>209.7</ele>
        <time>2017-06-30T09:24:23Z</time>
      </trkpt>
      <trkpt lat="44.30235" lon="4.2115">
        <ele>209.7</ele>
        <time>2017-06-30T09:24:25Z</time>
      </trkpt>
      <trkpt lat="44.30242" lon="4.21145">
        <ele>209.7</ele>
        <time>2017-06-30T09:24:36Z</time>
      </trkpt>
      <trkpt lat="44.3024" lon="4.21146">
        <ele>209.7</ele>
        <time>2017-06-30T09:24:52Z</time>
      </trkpt>
      <trkpt lat="44.30243" lon="4.21144">
        <ele>209.22</ele>
        <time>2017-06-30T09:25:09Z</time>
      </trkpt>
      <trkpt lat="44.30247" lon="4.21142">
        <ele>208.74</ele>
        <time>2017-06-30T09:25:17Z</time>
      </trkpt>
      <trkpt lat="44.30257" lon="4.2114">
        <ele>208.74</ele>
        <time>2017-06-30T09:25:28Z</time>
      </trkpt>
      <trkpt lat="44.30265" lon="4.21135">
        <ele>210.19</ele>
        <time>2017-06-30T09:25:37Z</time>
      </trkpt>
      <trkpt lat="44.30266" lon="4.21134">
        <ele>210.19</ele>
        <time>2017-06-30T09:25:38Z</time>
      </trkpt>
      <trkpt lat="44.30271" lon="4.21121">
        <ele>211.63</ele>
        <time>2017-06-30T09:25:50Z</time>
      </trkpt>
      <trkpt lat="44.30275" lon="4.21107">
        <ele>212.59</ele>
        <time>2017-06-30T09:26:02Z</time>
      </trkpt>
      <trkpt lat="44.30278" lon="4.21098">
        <ele>212.59</ele>
        <time>2017-06-30T09:26:09Z</time>
      </trkpt>
      <trkpt lat="44.30281" lon="4.21082">
        <ele>213.55</ele>
        <time>2017-06-30T09:26:21Z</time>
      </trkpt>
      <trkpt lat="44.30284" lon="4.21071">
        <ele>214.03</ele>
        <time>2017-06-30T09:26:32Z</time>
      </trkpt>
      <trkpt lat="44.30289" lon="4.21064">
        <ele>214.03</ele>
        <time>2017-06-30T09:26:51Z</time>
      </trkpt>
      <trkpt lat="44.30294" lon="4.21058">
        <ele>213.07</ele>
        <time>2017-06-30T09:27:08Z</time>
      </trkpt>
      <trkpt lat="44.30289" lon="4.21059">
        <ele>213.07</ele>
        <time>2017-06-30T09:27:21Z</time>
      </trkpt>
      <trkpt lat="44.30291" lon="4.21056">
        <ele>215.95</ele>
        <time>2017-06-30T09:27:24Z</time>
      </trkpt>
      <trkpt lat="44.30292" lon="4.21055">
        <ele>213.55</ele>
        <time>2017-06-30T09:27:27Z</time>
      </trkpt>
      <trkpt lat="44.30295" lon="4.21053">
        <ele>213.07</ele>
        <time>2017-06-30T09:27:33Z</time>
      </trkpt>
      <trkpt lat="44.30311" lon="4.21047">
        <ele>213.55</ele>
        <time>2017-06-30T09:27:47Z</time>
      </trkpt>
      <trkpt lat="44.30319" lon="4.21046">
        <ele>214.03</ele>
        <time>2017-06-30T09:27:56Z</time>
      </trkpt>
      <trkpt lat="44.30323" lon="4.21045">
        <ele>214.03</ele>
        <time>2017-06-30T09:28:02Z</time>
      </trkpt>
      <trkpt lat="44.3033" lon="4.21042">
        <ele>214.03</ele>
        <time>2017-06-30T09:28:09Z</time>
      </trkpt>
      <trkpt lat="44.30336" lon="4.21032">
        <ele>214.03</ele>
        <time>2017-06-30T09:28:21Z</time>
      </trkpt>
      <trkpt lat="44.30335" lon="4.21032">
        <ele>214.03</ele>
        <time>2017-06-30T09:28:23Z</time>
      </trkpt>
      <trkpt lat="44.30329" lon="4.21027">
        <ele>215.47</ele>
        <time>2017-06-30T09:28:30Z</time>
      </trkpt>
      <trkpt lat="44.30324" lon="4.21023">
        <ele>215.95</ele>
        <time>2017-06-30T09:28:42Z</time>
      </trkpt>
      <trkpt lat="44.30323" lon="4.21023">
        <ele>216.43</ele>
        <time>2017-06-30T09:28:54Z</time>
      </trkpt>
      <trkpt lat="44.3032" lon="4.21019">
        <ele>216.43</ele>
        <time>2017-06-30T09:29:10Z</time>
      </trkpt>
      <trkpt lat="44.30311" lon="4.21013">
        <ele>216.91</ele>
        <time>2017-06-30T09:29:21Z</time>
      </trkpt>
      <trkpt lat="44.30304" lon="4.21006">
        <ele>217.4</ele>
        <time>2017-06-30T09:29:30Z</time>
      </trkpt>
      <trkpt lat="44.30295" lon="4.20996">
        <ele>218.84</ele>
        <time>2017-06-30T09:29:42Z</time>
      </trkpt>
      <trkpt lat="44.30288" lon="4.20985">
        <ele>218.84</ele>
        <time>2017-06-30T09:29:52Z</time>
      </trkpt>
      <trkpt lat="44.30282" lon="4.20976">
        <ele>219.8</ele>
        <time>2017-06-30T09:30:01Z</time>
      </trkpt>
      <trkpt lat="44.30273" lon="4.20965">
        <ele>220.28</ele>
        <time>2017-06-30T09:30:13Z</time>
      </trkpt>
      <trkpt lat="44.30265" lon="4.20954">
        <ele>221.72</ele>
        <time>2017-06-30T09:30:25Z</time>
      </trkpt>
      <trkpt lat="44.30258" lon="4.20945">
        <ele>223.16</ele>
        <time>2017-06-30T09:30:34Z</time>
      </trkpt>
      <trkpt lat="44.30256" lon="4.20942">
        <ele>222.68</ele>
        <time>2017-06-30T09:30:38Z</time>
      </trkpt>
      <trkpt lat="44.30252" lon="4.20939">
        <ele>223.64</ele>
        <time>2017-06-30T09:30:42Z</time>
      </trkpt>
      <trkpt lat="44.30243" lon="4.20925">
        <ele>224.12</ele>
        <time>2017-06-30T09:30:56Z</time>
      </trkpt>
      <trkpt lat="44.30233" lon="4.20913">
        <ele>225.09</ele>
        <time>2017-06-30T09:31:09Z</time>
      </trkpt>
      <trkpt lat="44.30222" lon="4.20899">
        <ele>225.57</ele>
        <time>2017-06-30T09:31:22Z</time>
      </trkpt>
      <trkpt lat="44.30215" lon="4.20888">
        <ele>227.01</ele>
        <time>2017-06-30T09:31:35Z</time>
      </trkpt>
      <trkpt lat="44.30206" lon="4.20877">
        <ele>227.49</ele>
        <time>2017-06-30T09:31:47Z</time>
      </trkpt>
      <trkpt lat="44.30198" lon="4.20867">
        <ele>228.93</ele>
        <time>2017-06-30T09:31:59Z</time>
      </trkpt>
      <trkpt lat="44.30192" lon="4.20859">
        <ele>229.41</ele>
        <time>2017-06-30T09:32:07Z</time>
      </trkpt>
      <trkpt lat="44.30182" lon="4.20848">
        <ele>230.85</ele>
        <time>2017-06-30T09:32:19Z</time>
      </trkpt>
      <trkpt lat="44.30176" lon="4.2084">
        <ele>231.33</ele>
        <time>2017-06-30T09:32:29Z</time>
      </trkpt>
      <trkpt lat="44.30167" lon="4.20829">
        <ele>232.78</ele>
        <time>2017-06-30T09:32:41Z</time>
      </trkpt>
      <trkpt lat="44.30164" lon="4.20823">
        <ele>233.26</ele>
        <time>2017-06-30T09:32:47Z</time>
      </trkpt>
      <trkpt lat="44.30159" lon="4.20819">
        <ele>233.26</ele>
        <time>2017-06-30T09:32:58Z</time>
      </trkpt>
      <trkpt lat="44.30157" lon="4.20814">
        <ele>233.74</ele>
        <time>2017-06-30T09:33:02Z</time>
      </trkpt>
      <trkpt lat="44.3015" lon="4.20802">
        <ele>234.7</ele>
        <time>2017-06-30T09:33:15Z</time>
      </trkpt>
      <trkpt lat="44.30141" lon="4.20793">
        <ele>235.66</ele>
        <time>2017-06-30T09:33:28Z</time>
      </trkpt>
      <trkpt lat="44.30142" lon="4.20792">
        <ele>235.66</ele>
        <time>2017-06-30T09:33:32Z</time>
      </trkpt>
      <trkpt lat="44.30139" lon="4.20787">
        <ele>235.66</ele>
        <time>2017-06-30T09:33:37Z</time>
      </trkpt>
      <trkpt lat="44.30132" lon="4.20775">
        <ele>236.62</ele>
        <time>2017-06-30T09:33:50Z</time>
      </trkpt>
      <trkpt lat="44.3013" lon="4.20774">
        <ele>237.1</ele>
        <time>2017-06-30T09:33:55Z</time>
      </trkpt>
      <trkpt lat="44.30129" lon="4.2077">
        <ele>237.1</ele>
        <time>2017-06-30T09:33:59Z</time>
      </trkpt>
      <trkpt lat="44.30125" lon="4.20766">
        <ele>237.58</ele>
        <time>2017-06-30T09:34:03Z</time>
      </trkpt>
      <trkpt lat="44.30118" lon="4.20753">
        <ele>238.54</ele>
        <time>2017-06-30T09:34:17Z</time>
      </trkpt>
      <trkpt lat="44.30113" lon="4.2075">
        <ele>238.54</ele>
        <time>2017-06-30T09:34:29Z</time>
      </trkpt>
      <trkpt lat="44.3011" lon="4.20737">
        <ele>239.51</ele>
        <time>2017-06-30T09:34:40Z</time>
      </trkpt>
      <trkpt lat="44.30108" lon="4.20736">
        <ele>239.99</ele>
        <time>2017-06-30T09:34:50Z</time>
      </trkpt>
      <trkpt lat="44.30106" lon="4.20736">
        <ele>239.99</ele>
        <time>2017-06-30T09:34:53Z</time>
      </trkpt>
      <trkpt lat="44.30099" lon="4.20727">
        <ele>240.47</ele>
        <time>2017-06-30T09:35:04Z</time>
      </trkpt>
      <trkpt lat="44.30099" lon="4.20726">
        <ele>240.47</ele>
        <time>2017-06-30T09:35:06Z</time>
      </trkpt>
      <trkpt lat="44.30098" lon="4.20723">
        <ele>240.95</ele>
        <time>2017-06-30T09:35:09Z</time>
      </trkpt>
      <trkpt lat="44.30086" lon="4.2071">
        <ele>241.91</ele>
        <time>2017-06-30T09:35:23Z</time>
      </trkpt>
      <trkpt lat="44.30081" lon="4.20706">
        <ele>241.91</ele>
        <time>2017-06-30T09:35:33Z</time>
      </trkpt>
      <trkpt lat="44.30076" lon="4.20699">
        <ele>242.87</ele>
        <time>2017-06-30T09:35:42Z</time>
      </trkpt>
      <trkpt lat="44.3007" lon="4.20688">
        <ele>243.35</ele>
        <time>2017-06-30T09:35:54Z</time>
      </trkpt>
      <trkpt lat="44.30062" lon="4.20675">
        <ele>243.83</ele>
        <time>2017-06-30T09:36:06Z</time>
      </trkpt>
      <trkpt lat="44.30058" lon="4.20669">
        <ele>244.31</ele>
        <time>2017-06-30T09:36:13Z</time>
      </trkpt>
      <trkpt lat="44.30053" lon="4.20656">
        <ele>245.27</ele>
        <time>2017-06-30T09:36:25Z</time>
      </trkpt>
    </trkseg>
  </trk>
</gpx>